<?xml version="1.0" encoding="UTF-8" standalone="no" ?>
<gpx xmlns="http://www.topografix.com/GPX/1/1" xmlns:xsi="http://www.w3.org/2001/XMLSchema-instance" xsi:schemaLocation="http://www.topografix.com/GPX/1/1 http://www.topografix.com/GPX/1/1/gpx.xsd" version="1.1" creator="VisuGPX - https://www.visugpx.com">
  <metadata>
    <name>sortie du 9 octobre</name>
  </metadata>
  <trk>
    <name><![CDATA[sortie du 9 octobre_1]]></name>
    <trkseg>
      <trkpt lat="46.56987" lon="5.75331">
        <ele>531.6</ele>
      </trkpt>
      <trkpt lat="46.56993" lon="5.75312">
        <ele>529.9</ele>
      </trkpt>
      <trkpt lat="46.57004" lon="5.75296">
        <ele>528.7</ele>
      </trkpt>
      <trkpt lat="46.57002" lon="5.75276">
        <ele>526.5</ele>
      </trkpt>
      <trkpt lat="46.56981" lon="5.75264">
        <ele>527.5</ele>
      </trkpt>
      <trkpt lat="46.56955" lon="5.75255">
        <ele>525</ele>
        <time>2021-09-19T11:05:40Z</time>
      </trkpt>
      <trkpt lat="46.56966" lon="5.75249">
        <ele>524.4</ele>
      </trkpt>
      <trkpt lat="46.57002" lon="5.75249">
        <ele>524</ele>
        <time>2021-09-19T11:05:51Z</time>
      </trkpt>
      <trkpt lat="46.57059" lon="5.75227">
        <ele>525</ele>
        <time>2021-09-19T11:06:05Z</time>
      </trkpt>
      <trkpt lat="46.57089" lon="5.75218">
        <ele>526</ele>
        <time>2021-09-19T11:06:12Z</time>
      </trkpt>
      <trkpt lat="46.57124" lon="5.75199">
        <ele>527</ele>
        <time>2021-09-19T11:06:21Z</time>
      </trkpt>
      <trkpt lat="46.57143" lon="5.75193">
        <ele>527</ele>
        <time>2021-09-19T11:06:25Z</time>
      </trkpt>
      <trkpt lat="46.57161" lon="5.75191">
        <ele>527</ele>
        <time>2021-09-19T11:06:30Z</time>
      </trkpt>
      <trkpt lat="46.57232" lon="5.75105">
        <ele>527</ele>
        <time>2021-09-19T11:06:51Z</time>
      </trkpt>
      <trkpt lat="46.57272" lon="5.75081">
        <ele>528</ele>
        <time>2021-09-19T11:07:01Z</time>
      </trkpt>
      <trkpt lat="46.57296" lon="5.75063">
        <ele>528</ele>
        <time>2021-09-19T11:07:08Z</time>
      </trkpt>
      <trkpt lat="46.57307" lon="5.75051">
        <ele>529</ele>
        <time>2021-09-19T11:07:11Z</time>
      </trkpt>
      <trkpt lat="46.57313" lon="5.7504">
        <ele>529</ele>
        <time>2021-09-19T11:07:13Z</time>
      </trkpt>
      <trkpt lat="46.57341" lon="5.74965">
        <ele>530</ele>
        <time>2021-09-19T11:07:27Z</time>
      </trkpt>
      <trkpt lat="46.57351" lon="5.7491">
        <ele>530</ele>
        <time>2021-09-19T11:07:36Z</time>
      </trkpt>
      <trkpt lat="46.5737" lon="5.74836">
        <ele>529</ele>
        <time>2021-09-19T11:07:49Z</time>
      </trkpt>
      <trkpt lat="46.5738" lon="5.74825">
        <ele>529</ele>
        <time>2021-09-19T11:07:51Z</time>
      </trkpt>
      <trkpt lat="46.57385" lon="5.74828">
        <ele>529</ele>
        <time>2021-09-19T11:07:53Z</time>
      </trkpt>
      <trkpt lat="46.57382" lon="5.74825">
        <ele>529.1</ele>
      </trkpt>
      <trkpt lat="46.57383" lon="5.74799">
        <ele>529</ele>
        <time>2021-09-19T09:08:30Z</time>
      </trkpt>
      <trkpt lat="46.57385" lon="5.7479">
        <ele>529</ele>
        <time>2021-09-19T09:08:32Z</time>
      </trkpt>
      <trkpt lat="46.5739" lon="5.74783">
        <ele>529</ele>
        <time>2021-09-19T09:08:33Z</time>
      </trkpt>
      <trkpt lat="46.57407" lon="5.74774">
        <ele>530</ele>
        <time>2021-09-19T09:08:38Z</time>
      </trkpt>
      <trkpt lat="46.57412" lon="5.74775">
        <ele>530</ele>
        <time>2021-09-19T09:08:39Z</time>
      </trkpt>
      <trkpt lat="46.57417" lon="5.74772">
        <ele>530</ele>
        <time>2021-09-19T09:08:40Z</time>
      </trkpt>
      <trkpt lat="46.57424" lon="5.74761">
        <ele>530</ele>
        <time>2021-09-19T09:08:43Z</time>
      </trkpt>
      <trkpt lat="46.57479" lon="5.74745">
        <ele>534</ele>
        <time>2021-09-19T09:08:56Z</time>
      </trkpt>
      <trkpt lat="46.57487" lon="5.74705">
        <ele>536</ele>
        <time>2021-09-19T09:09:02Z</time>
      </trkpt>
      <trkpt lat="46.57504" lon="5.74665">
        <ele>539</ele>
        <time>2021-09-19T09:09:10Z</time>
      </trkpt>
      <trkpt lat="46.57501" lon="5.7467">
        <ele>539</ele>
        <time>2021-09-19T09:09:11Z</time>
      </trkpt>
      <trkpt lat="46.57497" lon="5.74695">
        <ele>537</ele>
        <time>2021-09-19T09:09:15Z</time>
      </trkpt>
      <trkpt lat="46.57491" lon="5.74712">
        <ele>536</ele>
        <time>2021-09-19T09:09:18Z</time>
      </trkpt>
      <trkpt lat="46.57516" lon="5.74611">
        <ele>541</ele>
        <time>2021-09-19T09:09:35Z</time>
      </trkpt>
      <trkpt lat="46.57534" lon="5.74557">
        <ele>543</ele>
        <time>2021-09-19T09:09:45Z</time>
      </trkpt>
      <trkpt lat="46.57544" lon="5.74488">
        <ele>544</ele>
        <time>2021-09-19T09:09:56Z</time>
      </trkpt>
      <trkpt lat="46.57576" lon="5.74429">
        <ele>543</ele>
        <time>2021-09-19T09:10:08Z</time>
      </trkpt>
      <trkpt lat="46.57592" lon="5.74376">
        <ele>543</ele>
        <time>2021-09-19T09:10:18Z</time>
      </trkpt>
      <trkpt lat="46.57598" lon="5.7437">
        <ele>543</ele>
        <time>2021-09-19T09:10:19Z</time>
      </trkpt>
      <trkpt lat="46.57605" lon="5.74368">
        <ele>543</ele>
        <time>2021-09-19T09:10:21Z</time>
      </trkpt>
      <trkpt lat="46.57613" lon="5.74369">
        <ele>543</ele>
        <time>2021-09-19T09:10:23Z</time>
      </trkpt>
      <trkpt lat="46.57687" lon="5.74401">
        <ele>542</ele>
        <time>2021-09-19T09:10:41Z</time>
      </trkpt>
      <trkpt lat="46.5772" lon="5.74419">
        <ele>541</ele>
        <time>2021-09-19T09:10:49Z</time>
      </trkpt>
      <trkpt lat="46.57731" lon="5.74421">
        <ele>541</ele>
        <time>2021-09-19T09:10:52Z</time>
      </trkpt>
      <trkpt lat="46.5774" lon="5.74416">
        <ele>541</ele>
        <time>2021-09-19T09:10:54Z</time>
      </trkpt>
      <trkpt lat="46.57767" lon="5.74373">
        <ele>542</ele>
        <time>2021-09-19T09:11:03Z</time>
      </trkpt>
      <trkpt lat="46.57784" lon="5.74357">
        <ele>542</ele>
        <time>2021-09-19T09:11:08Z</time>
      </trkpt>
      <trkpt lat="46.57803" lon="5.74345">
        <ele>542</ele>
        <time>2021-09-19T09:11:13Z</time>
      </trkpt>
      <trkpt lat="46.57833" lon="5.74337">
        <ele>541</ele>
        <time>2021-09-19T09:11:20Z</time>
      </trkpt>
      <trkpt lat="46.57871" lon="5.74337">
        <ele>541</ele>
        <time>2021-09-19T09:11:29Z</time>
      </trkpt>
      <trkpt lat="46.57905" lon="5.74342">
        <ele>540</ele>
        <time>2021-09-19T09:11:37Z</time>
      </trkpt>
      <trkpt lat="46.57959" lon="5.74345">
        <ele>540</ele>
        <time>2021-09-19T09:11:50Z</time>
      </trkpt>
      <trkpt lat="46.57983" lon="5.7435">
        <ele>540</ele>
        <time>2021-09-19T09:11:55Z</time>
      </trkpt>
      <trkpt lat="46.57991" lon="5.74349">
        <ele>540</ele>
        <time>2021-09-19T09:11:57Z</time>
      </trkpt>
      <trkpt lat="46.58036" lon="5.7433">
        <ele>540</ele>
        <time>2021-09-19T09:12:08Z</time>
      </trkpt>
      <trkpt lat="46.5806" lon="5.74328">
        <ele>539</ele>
        <time>2021-09-19T09:12:14Z</time>
      </trkpt>
      <trkpt lat="46.5812" lon="5.74333">
        <ele>538</ele>
        <time>2021-09-19T09:12:28Z</time>
      </trkpt>
      <trkpt lat="46.58171" lon="5.74328">
        <ele>537</ele>
        <time>2021-09-19T09:12:40Z</time>
      </trkpt>
      <trkpt lat="46.58225" lon="5.74348">
        <ele>536</ele>
        <time>2021-09-19T09:12:53Z</time>
      </trkpt>
      <trkpt lat="46.58265" lon="5.74354">
        <ele>535</ele>
        <time>2021-09-19T09:13:02Z</time>
      </trkpt>
      <trkpt lat="46.58294" lon="5.74361">
        <ele>534</ele>
        <time>2021-09-19T09:13:09Z</time>
      </trkpt>
      <trkpt lat="46.58303" lon="5.7436">
        <ele>534</ele>
        <time>2021-09-19T09:13:11Z</time>
      </trkpt>
      <trkpt lat="46.5831" lon="5.74355">
        <ele>534</ele>
        <time>2021-09-19T09:13:13Z</time>
      </trkpt>
      <trkpt lat="46.58365" lon="5.74198">
        <ele>531</ele>
        <time>2021-09-19T09:13:41Z</time>
      </trkpt>
      <trkpt lat="46.58372" lon="5.7414">
        <ele>529</ele>
        <time>2021-09-19T09:13:51Z</time>
      </trkpt>
      <trkpt lat="46.58378" lon="5.74111">
        <ele>527</ele>
        <time>2021-09-19T09:13:55Z</time>
      </trkpt>
      <trkpt lat="46.58396" lon="5.74048">
        <ele>523</ele>
        <time>2021-09-19T09:14:06Z</time>
      </trkpt>
      <trkpt lat="46.58427" lon="5.73851">
        <ele>519</ele>
        <time>2021-09-19T09:14:39Z</time>
      </trkpt>
      <trkpt lat="46.58447" lon="5.73758">
        <ele>519</ele>
        <time>2021-09-19T09:14:54Z</time>
      </trkpt>
      <trkpt lat="46.58453" lon="5.73664">
        <ele>518</ele>
        <time>2021-09-19T09:15:10Z</time>
      </trkpt>
      <trkpt lat="46.58456" lon="5.73651">
        <ele>518</ele>
        <time>2021-09-19T09:15:12Z</time>
      </trkpt>
      <trkpt lat="46.58466" lon="5.73632">
        <ele>518</ele>
        <time>2021-09-19T09:15:16Z</time>
      </trkpt>
      <trkpt lat="46.5848" lon="5.73575">
        <ele>518</ele>
        <time>2021-09-19T09:15:25Z</time>
      </trkpt>
      <trkpt lat="46.58503" lon="5.73535">
        <ele>516</ele>
        <time>2021-09-19T09:15:34Z</time>
      </trkpt>
      <trkpt lat="46.58519" lon="5.73516">
        <ele>514</ele>
        <time>2021-09-19T09:15:39Z</time>
      </trkpt>
      <trkpt lat="46.58532" lon="5.73505">
        <ele>514</ele>
        <time>2021-09-19T09:15:42Z</time>
      </trkpt>
      <trkpt lat="46.5857" lon="5.73486">
        <ele>511</ele>
        <time>2021-09-19T09:15:51Z</time>
      </trkpt>
      <trkpt lat="46.58596" lon="5.7348">
        <ele>509</ele>
        <time>2021-09-19T09:15:58Z</time>
      </trkpt>
      <trkpt lat="46.58641" lon="5.73455">
        <ele>504</ele>
        <time>2021-09-19T09:16:09Z</time>
      </trkpt>
      <trkpt lat="46.58665" lon="5.73436">
        <ele>501</ele>
        <time>2021-09-19T09:16:15Z</time>
      </trkpt>
      <trkpt lat="46.58692" lon="5.73393">
        <ele>500</ele>
        <time>2021-09-19T09:16:25Z</time>
      </trkpt>
      <trkpt lat="46.58704" lon="5.73357">
        <ele>500</ele>
        <time>2021-09-19T09:16:31Z</time>
      </trkpt>
      <trkpt lat="46.58723" lon="5.73279">
        <ele>497</ele>
        <time>2021-09-19T09:16:44Z</time>
      </trkpt>
      <trkpt lat="46.58747" lon="5.7323">
        <ele>494</ele>
        <time>2021-09-19T09:16:54Z</time>
      </trkpt>
      <trkpt lat="46.58759" lon="5.73213">
        <ele>492</ele>
        <time>2021-09-19T09:16:58Z</time>
      </trkpt>
      <trkpt lat="46.58784" lon="5.7319">
        <ele>490</ele>
        <time>2021-09-19T09:17:05Z</time>
      </trkpt>
      <trkpt lat="46.58811" lon="5.73173">
        <ele>487</ele>
        <time>2021-09-19T09:17:12Z</time>
      </trkpt>
      <trkpt lat="46.58827" lon="5.73166">
        <ele>486</ele>
        <time>2021-09-19T09:17:15Z</time>
      </trkpt>
      <trkpt lat="46.58889" lon="5.73147">
        <ele>485</ele>
        <time>2021-09-19T09:17:30Z</time>
      </trkpt>
      <trkpt lat="46.58908" lon="5.73132">
        <ele>485</ele>
        <time>2021-09-19T09:17:35Z</time>
      </trkpt>
      <trkpt lat="46.5892" lon="5.73116">
        <ele>484</ele>
        <time>2021-09-19T09:17:39Z</time>
      </trkpt>
      <trkpt lat="46.58936" lon="5.73072">
        <ele>483</ele>
        <time>2021-09-19T09:17:47Z</time>
      </trkpt>
      <trkpt lat="46.58938" lon="5.7306">
        <ele>483</ele>
        <time>2021-09-19T09:17:49Z</time>
      </trkpt>
      <trkpt lat="46.58937" lon="5.73024">
        <ele>482</ele>
        <time>2021-09-19T09:17:55Z</time>
      </trkpt>
      <trkpt lat="46.58933" lon="5.73013">
        <ele>482</ele>
        <time>2021-09-19T09:17:57Z</time>
      </trkpt>
      <trkpt lat="46.58925" lon="5.73007">
        <ele>482</ele>
        <time>2021-09-19T09:17:59Z</time>
      </trkpt>
      <trkpt lat="46.58904" lon="5.73001">
        <ele>482</ele>
        <time>2021-09-19T09:18:04Z</time>
      </trkpt>
      <trkpt lat="46.58866" lon="5.72981">
        <ele>481</ele>
        <time>2021-09-19T09:18:13Z</time>
      </trkpt>
      <trkpt lat="46.58845" lon="5.72974">
        <ele>481</ele>
        <time>2021-09-19T09:18:18Z</time>
      </trkpt>
      <trkpt lat="46.58816" lon="5.72959">
        <ele>481</ele>
        <time>2021-09-19T09:18:26Z</time>
      </trkpt>
      <trkpt lat="46.58711" lon="5.72889">
        <ele>479</ele>
        <time>2021-09-19T09:18:53Z</time>
      </trkpt>
      <trkpt lat="46.58612" lon="5.72833">
        <ele>479</ele>
        <time>2021-09-19T09:19:17Z</time>
      </trkpt>
      <trkpt lat="46.58588" lon="5.72814">
        <ele>480</ele>
        <time>2021-09-19T09:19:24Z</time>
      </trkpt>
      <trkpt lat="46.58516" lon="5.72745">
        <ele>481</ele>
        <time>2021-09-19T09:19:44Z</time>
      </trkpt>
      <trkpt lat="46.58487" lon="5.72725">
        <ele>481</ele>
        <time>2021-09-19T09:19:51Z</time>
      </trkpt>
      <trkpt lat="46.58471" lon="5.72717">
        <ele>481</ele>
        <time>2021-09-19T09:19:55Z</time>
      </trkpt>
      <trkpt lat="46.58431" lon="5.72706">
        <ele>481</ele>
        <time>2021-09-19T09:20:05Z</time>
      </trkpt>
      <trkpt lat="46.58376" lon="5.72698">
        <ele>483</ele>
        <time>2021-09-19T09:20:18Z</time>
      </trkpt>
      <trkpt lat="46.58334" lon="5.72694">
        <ele>484</ele>
        <time>2021-09-19T09:20:28Z</time>
      </trkpt>
      <trkpt lat="46.58279" lon="5.72697">
        <ele>485</ele>
        <time>2021-09-19T09:20:40Z</time>
      </trkpt>
      <trkpt lat="46.58255" lon="5.72693">
        <ele>485</ele>
        <time>2021-09-19T09:20:46Z</time>
      </trkpt>
      <trkpt lat="46.58239" lon="5.72687">
        <ele>485</ele>
        <time>2021-09-19T09:20:50Z</time>
      </trkpt>
      <trkpt lat="46.58172" lon="5.7264">
        <ele>488</ele>
        <time>2021-09-19T09:21:07Z</time>
      </trkpt>
      <trkpt lat="46.58155" lon="5.72634">
        <ele>489</ele>
        <time>2021-09-19T09:21:11Z</time>
      </trkpt>
      <trkpt lat="46.58149" lon="5.72634">
        <ele>489</ele>
        <time>2021-09-19T09:21:13Z</time>
      </trkpt>
      <trkpt lat="46.58154" lon="5.72626">
        <ele>489.1</ele>
      </trkpt>
      <trkpt lat="46.58605" lon="5.70671">
        <ele>463.6</ele>
      </trkpt>
      <trkpt lat="46.58624" lon="5.70591">
        <ele>462.6</ele>
      </trkpt>
      <trkpt lat="46.58617" lon="5.70512">
        <ele>461.4</ele>
      </trkpt>
      <trkpt lat="46.58598" lon="5.7043">
        <ele>459.7</ele>
      </trkpt>
      <trkpt lat="46.58568" lon="5.70356">
        <ele>455.9</ele>
      </trkpt>
      <trkpt lat="46.58543" lon="5.70282">
        <ele>452.3</ele>
      </trkpt>
      <trkpt lat="46.58518" lon="5.70158">
        <ele>442</ele>
        <time>2021-09-19T09:52:20Z</time>
      </trkpt>
      <trkpt lat="46.58511" lon="5.70121">
        <ele>440</ele>
        <time>2021-09-19T09:52:14Z</time>
      </trkpt>
      <trkpt lat="46.58497" lon="5.69981">
        <ele>437</ele>
        <time>2021-09-19T09:51:51Z</time>
      </trkpt>
      <trkpt lat="46.58468" lon="5.69989">
        <ele>437</ele>
        <time>2021-09-19T09:51:44Z</time>
      </trkpt>
      <trkpt lat="46.58389" lon="5.70023">
        <ele>436</ele>
        <time>2021-09-19T09:51:25Z</time>
      </trkpt>
      <trkpt lat="46.58293" lon="5.70068">
        <ele>435</ele>
        <time>2021-09-19T09:51:02Z</time>
      </trkpt>
      <trkpt lat="46.58258" lon="5.70074">
        <ele>436</ele>
        <time>2021-09-19T09:50:53Z</time>
      </trkpt>
      <trkpt lat="46.58177" lon="5.70135">
        <ele>434</ele>
        <time>2021-09-19T09:50:32Z</time>
      </trkpt>
      <trkpt lat="46.58122" lon="5.70184">
        <ele>433</ele>
        <time>2021-09-19T09:50:17Z</time>
      </trkpt>
      <trkpt lat="46.58096" lon="5.70204">
        <ele>433</ele>
        <time>2021-09-19T09:50:10Z</time>
      </trkpt>
      <trkpt lat="46.58052" lon="5.70204">
        <ele>433</ele>
        <time>2021-09-19T09:50:00Z</time>
      </trkpt>
      <trkpt lat="46.58005" lon="5.70188">
        <ele>432</ele>
        <time>2021-09-19T09:49:49Z</time>
      </trkpt>
      <trkpt lat="46.5797" lon="5.70179">
        <ele>431</ele>
        <time>2021-09-19T09:49:40Z</time>
      </trkpt>
      <trkpt lat="46.57952" lon="5.70169">
        <ele>430</ele>
        <time>2021-09-19T09:49:36Z</time>
      </trkpt>
      <trkpt lat="46.57954" lon="5.70135">
        <ele>430</ele>
        <time>2021-09-19T09:49:30Z</time>
      </trkpt>
      <trkpt lat="46.57946" lon="5.70125">
        <ele>430</ele>
        <time>2021-09-19T09:49:28Z</time>
      </trkpt>
      <trkpt lat="46.57965" lon="5.70071">
        <ele>431</ele>
        <time>2021-09-19T09:49:18Z</time>
      </trkpt>
      <trkpt lat="46.57977" lon="5.70063">
        <ele>432</ele>
        <time>2021-09-19T09:49:15Z</time>
      </trkpt>
      <trkpt lat="46.58011" lon="5.69964">
        <ele>438</ele>
        <time>2021-09-19T09:48:57Z</time>
      </trkpt>
      <trkpt lat="46.58013" lon="5.69945">
        <ele>438</ele>
        <time>2021-09-19T09:48:54Z</time>
      </trkpt>
      <trkpt lat="46.58006" lon="5.69892">
        <ele>440</ele>
        <time>2021-09-19T09:48:46Z</time>
      </trkpt>
      <trkpt lat="46.58001" lon="5.69826">
        <ele>442</ele>
        <time>2021-09-19T09:48:35Z</time>
      </trkpt>
      <trkpt lat="46.57992" lon="5.69765">
        <ele>449</ele>
        <time>2021-09-19T09:48:25Z</time>
      </trkpt>
      <trkpt lat="46.57991" lon="5.69732">
        <ele>452</ele>
        <time>2021-09-19T09:48:20Z</time>
      </trkpt>
      <trkpt lat="46.57998" lon="5.69709">
        <ele>453</ele>
        <time>2021-09-19T09:48:15Z</time>
      </trkpt>
      <trkpt lat="46.5801" lon="5.69685">
        <ele>456</ele>
        <time>2021-09-19T09:48:11Z</time>
      </trkpt>
      <trkpt lat="46.58077" lon="5.69595">
        <ele>456</ele>
        <time>2021-09-19T09:47:49Z</time>
      </trkpt>
      <trkpt lat="46.58117" lon="5.69558">
        <ele>457</ele>
        <time>2021-09-19T09:47:38Z</time>
      </trkpt>
      <trkpt lat="46.58162" lon="5.69525">
        <ele>460</ele>
        <time>2021-09-19T09:47:27Z</time>
      </trkpt>
      <trkpt lat="46.58194" lon="5.69479">
        <ele>457</ele>
        <time>2021-09-19T09:47:16Z</time>
      </trkpt>
      <trkpt lat="46.58198" lon="5.69454">
        <ele>456</ele>
        <time>2021-09-19T09:47:12Z</time>
      </trkpt>
      <trkpt lat="46.58192" lon="5.69383">
        <ele>456</ele>
        <time>2021-09-19T09:47:00Z</time>
      </trkpt>
      <trkpt lat="46.58192" lon="5.69358">
        <ele>456</ele>
        <time>2021-09-19T09:46:56Z</time>
      </trkpt>
      <trkpt lat="46.58197" lon="5.69333">
        <ele>457</ele>
        <time>2021-09-19T09:46:52Z</time>
      </trkpt>
      <trkpt lat="46.58194" lon="5.69326">
        <ele>457</ele>
        <time>2021-09-19T09:46:51Z</time>
      </trkpt>
      <trkpt lat="46.5819" lon="5.69325">
        <ele>457</ele>
        <time>2021-09-19T09:46:50Z</time>
      </trkpt>
      <trkpt lat="46.58181" lon="5.6933">
        <ele>457</ele>
        <time>2021-09-19T09:46:48Z</time>
      </trkpt>
      <trkpt lat="46.58125" lon="5.69329">
        <ele>459</ele>
        <time>2021-09-19T09:46:35Z</time>
      </trkpt>
      <trkpt lat="46.58094" lon="5.69333">
        <ele>460</ele>
        <time>2021-09-19T09:46:27Z</time>
      </trkpt>
      <trkpt lat="46.58003" lon="5.69354">
        <ele>460</ele>
        <time>2021-09-19T09:46:06Z</time>
      </trkpt>
      <trkpt lat="46.57943" lon="5.69358">
        <ele>461</ele>
        <time>2021-09-19T09:45:52Z</time>
      </trkpt>
      <trkpt lat="46.57895" lon="5.69371">
        <ele>462</ele>
        <time>2021-09-19T09:45:40Z</time>
      </trkpt>
      <trkpt lat="46.57825" lon="5.69395">
        <ele>462</ele>
        <time>2021-09-19T09:45:24Z</time>
      </trkpt>
      <trkpt lat="46.57806" lon="5.69408">
        <ele>462</ele>
        <time>2021-09-19T09:45:19Z</time>
      </trkpt>
      <trkpt lat="46.57789" lon="5.69429">
        <ele>462</ele>
        <time>2021-09-19T09:45:14Z</time>
      </trkpt>
      <trkpt lat="46.57754" lon="5.69494">
        <ele>463</ele>
        <time>2021-09-19T09:45:00Z</time>
      </trkpt>
      <trkpt lat="46.57739" lon="5.69514">
        <ele>463</ele>
        <time>2021-09-19T09:44:56Z</time>
      </trkpt>
      <trkpt lat="46.57708" lon="5.69533">
        <ele>464</ele>
        <time>2021-09-19T09:44:48Z</time>
      </trkpt>
      <trkpt lat="46.57696" lon="5.69532">
        <ele>464</ele>
        <time>2021-09-19T09:44:45Z</time>
      </trkpt>
      <trkpt lat="46.57671" lon="5.69518">
        <ele>464</ele>
        <time>2021-09-19T09:44:39Z</time>
      </trkpt>
      <trkpt lat="46.57606" lon="5.69442">
        <ele>468</ele>
        <time>2021-09-19T09:44:19Z</time>
      </trkpt>
      <trkpt lat="46.5757" lon="5.69417">
        <ele>470</ele>
        <time>2021-09-19T09:44:10Z</time>
      </trkpt>
      <trkpt lat="46.57555" lon="5.69392">
        <ele>471</ele>
        <time>2021-09-19T09:44:05Z</time>
      </trkpt>
      <trkpt lat="46.57535" lon="5.69377">
        <ele>471</ele>
        <time>2021-09-19T09:43:59Z</time>
      </trkpt>
      <trkpt lat="46.57495" lon="5.69324">
        <ele>472</ele>
        <time>2021-09-19T09:43:47Z</time>
      </trkpt>
      <trkpt lat="46.57437" lon="5.69282">
        <ele>471</ele>
        <time>2021-09-19T09:43:32Z</time>
      </trkpt>
      <trkpt lat="46.57254" lon="5.69311">
        <ele>475</ele>
        <time>2021-09-19T09:42:49Z</time>
      </trkpt>
      <trkpt lat="46.56877" lon="5.69363">
        <ele>485</ele>
        <time>2021-09-19T09:41:20Z</time>
      </trkpt>
      <trkpt lat="46.5662" lon="5.69428">
        <ele>487</ele>
        <time>2021-09-19T09:40:19Z</time>
      </trkpt>
      <trkpt lat="46.56531" lon="5.69461">
        <ele>484</ele>
        <time>2021-09-19T09:39:58Z</time>
      </trkpt>
      <trkpt lat="46.56348" lon="5.69538">
        <ele>478</ele>
        <time>2021-09-19T09:39:13Z</time>
      </trkpt>
      <trkpt lat="46.56324" lon="5.69556">
        <ele>476</ele>
        <time>2021-09-19T09:39:07Z</time>
      </trkpt>
      <trkpt lat="46.56253" lon="5.69618">
        <ele>470</ele>
        <time>2021-09-19T09:38:48Z</time>
      </trkpt>
      <trkpt lat="46.56244" lon="5.69584">
        <ele>470</ele>
        <time>2021-09-19T09:38:42Z</time>
      </trkpt>
      <trkpt lat="46.56226" lon="5.69557">
        <ele>470</ele>
        <time>2021-09-19T09:38:36Z</time>
      </trkpt>
      <trkpt lat="46.56166" lon="5.6952">
        <ele>468</ele>
        <time>2021-09-19T09:38:20Z</time>
      </trkpt>
      <trkpt lat="46.56143" lon="5.69498">
        <ele>470</ele>
        <time>2021-09-19T09:38:14Z</time>
      </trkpt>
      <trkpt lat="46.56127" lon="5.69473">
        <ele>471</ele>
        <time>2021-09-19T09:38:09Z</time>
      </trkpt>
      <trkpt lat="46.56103" lon="5.69397">
        <ele>474</ele>
        <time>2021-09-19T09:37:55Z</time>
      </trkpt>
      <trkpt lat="46.56089" lon="5.69384">
        <ele>473</ele>
        <time>2021-09-19T09:37:51Z</time>
      </trkpt>
      <trkpt lat="46.56051" lon="5.69377">
        <ele>474</ele>
        <time>2021-09-19T09:37:42Z</time>
      </trkpt>
      <trkpt lat="46.56017" lon="5.69375">
        <ele>474</ele>
        <time>2021-09-19T09:37:34Z</time>
      </trkpt>
      <trkpt lat="46.55983" lon="5.69362">
        <ele>474</ele>
        <time>2021-09-19T09:37:26Z</time>
      </trkpt>
      <trkpt lat="46.55941" lon="5.69328">
        <ele>474</ele>
        <time>2021-09-19T09:37:15Z</time>
      </trkpt>
      <trkpt lat="46.5592" lon="5.69298">
        <ele>473</ele>
        <time>2021-09-19T09:37:08Z</time>
      </trkpt>
      <trkpt lat="46.55915" lon="5.69272">
        <ele>472</ele>
        <time>2021-09-19T09:37:04Z</time>
      </trkpt>
      <trkpt lat="46.5591" lon="5.692">
        <ele>472</ele>
        <time>2021-09-19T09:36:52Z</time>
      </trkpt>
      <trkpt lat="46.55902" lon="5.69129">
        <ele>473</ele>
        <time>2021-09-19T09:36:41Z</time>
      </trkpt>
      <trkpt lat="46.55895" lon="5.69003">
        <ele>478</ele>
        <time>2021-09-19T09:36:20Z</time>
      </trkpt>
      <trkpt lat="46.55881" lon="5.68918">
        <ele>481</ele>
        <time>2021-09-19T09:36:06Z</time>
      </trkpt>
      <trkpt lat="46.55882" lon="5.68882">
        <ele>483</ele>
        <time>2021-09-19T09:36:00Z</time>
      </trkpt>
      <trkpt lat="46.55892" lon="5.68828">
        <ele>487</ele>
        <time>2021-09-19T09:35:51Z</time>
      </trkpt>
      <trkpt lat="46.55907" lon="5.68691">
        <ele>487</ele>
        <time>2021-09-19T09:35:29Z</time>
      </trkpt>
      <trkpt lat="46.55919" lon="5.68517">
        <ele>483</ele>
        <time>2021-09-19T09:35:01Z</time>
      </trkpt>
      <trkpt lat="46.55914" lon="5.68498">
        <ele>483</ele>
        <time>2021-09-19T09:34:58Z</time>
      </trkpt>
      <trkpt lat="46.55867" lon="5.68387">
        <ele>482</ele>
        <time>2021-09-19T09:34:37Z</time>
      </trkpt>
      <trkpt lat="46.55863" lon="5.68337">
        <ele>481</ele>
        <time>2021-09-19T09:34:29Z</time>
      </trkpt>
      <trkpt lat="46.55861" lon="5.68142">
        <ele>479</ele>
        <time>2021-09-19T09:33:58Z</time>
      </trkpt>
      <trkpt lat="46.55851" lon="5.6811">
        <ele>479</ele>
        <time>2021-09-19T09:33:52Z</time>
      </trkpt>
      <trkpt lat="46.55825" lon="5.68057">
        <ele>478</ele>
        <time>2021-09-19T09:33:41Z</time>
      </trkpt>
      <trkpt lat="46.55808" lon="5.68002">
        <ele>478</ele>
        <time>2021-09-19T09:33:32Z</time>
      </trkpt>
      <trkpt lat="46.55789" lon="5.67964">
        <ele>478</ele>
        <time>2021-09-19T09:33:24Z</time>
      </trkpt>
      <trkpt lat="46.55639" lon="5.67738">
        <ele>478</ele>
        <time>2021-09-19T09:32:34Z</time>
      </trkpt>
      <trkpt lat="46.55608" lon="5.67697">
        <ele>478</ele>
        <time>2021-09-19T09:32:24Z</time>
      </trkpt>
      <trkpt lat="46.5558" lon="5.67688">
        <ele>478</ele>
        <time>2021-09-19T09:32:17Z</time>
      </trkpt>
      <trkpt lat="46.55556" lon="5.67668">
        <ele>477</ele>
        <time>2021-09-19T09:32:11Z</time>
      </trkpt>
      <trkpt lat="46.55535" lon="5.67641">
        <ele>478</ele>
        <time>2021-09-19T09:32:04Z</time>
      </trkpt>
      <trkpt lat="46.55521" lon="5.67601">
        <ele>480</ele>
        <time>2021-09-19T09:31:57Z</time>
      </trkpt>
      <trkpt lat="46.55498" lon="5.67554">
        <ele>482</ele>
        <time>2021-09-19T09:31:48Z</time>
      </trkpt>
      <trkpt lat="46.55488" lon="5.67523">
        <ele>483</ele>
        <time>2021-09-19T09:31:42Z</time>
      </trkpt>
      <trkpt lat="46.55439" lon="5.67451">
        <ele>487</ele>
        <time>2021-09-19T09:31:26Z</time>
      </trkpt>
      <trkpt lat="46.5544" lon="5.67419">
        <ele>488</ele>
        <time>2021-09-19T09:31:21Z</time>
      </trkpt>
      <trkpt lat="46.55437" lon="5.67393">
        <ele>488</ele>
        <time>2021-09-19T09:31:17Z</time>
      </trkpt>
      <trkpt lat="46.5538" lon="5.67126">
        <ele>491</ele>
        <time>2021-09-19T09:30:32Z</time>
      </trkpt>
      <trkpt lat="46.55365" lon="5.67063">
        <ele>492</ele>
        <time>2021-09-19T09:30:21Z</time>
      </trkpt>
      <trkpt lat="46.55344" lon="5.66999">
        <ele>491</ele>
        <time>2021-09-19T09:30:10Z</time>
      </trkpt>
      <trkpt lat="46.55318" lon="5.66938">
        <ele>491</ele>
        <time>2021-09-19T09:29:58Z</time>
      </trkpt>
      <trkpt lat="46.55267" lon="5.6687">
        <ele>490</ele>
        <time>2021-09-19T09:29:42Z</time>
      </trkpt>
      <trkpt lat="46.55243" lon="5.66848">
        <ele>490</ele>
        <time>2021-09-19T09:29:35Z</time>
      </trkpt>
      <trkpt lat="46.55217" lon="5.66833">
        <ele>491</ele>
        <time>2021-09-19T09:29:29Z</time>
      </trkpt>
      <trkpt lat="46.55183" lon="5.66823">
        <ele>492</ele>
        <time>2021-09-19T09:29:21Z</time>
      </trkpt>
      <trkpt lat="46.55111" lon="5.66821">
        <ele>497</ele>
        <time>2021-09-19T09:29:04Z</time>
      </trkpt>
      <trkpt lat="46.55092" lon="5.66833">
        <ele>499</ele>
        <time>2021-09-19T09:28:59Z</time>
      </trkpt>
      <trkpt lat="46.55062" lon="5.66873">
        <ele>508</ele>
        <time>2021-09-19T09:28:50Z</time>
      </trkpt>
      <trkpt lat="46.55051" lon="5.66879">
        <ele>512</ele>
        <time>2021-09-19T09:28:47Z</time>
      </trkpt>
      <trkpt lat="46.5503" lon="5.66869">
        <ele>515</ele>
        <time>2021-09-19T09:28:42Z</time>
      </trkpt>
      <trkpt lat="46.54992" lon="5.66861">
        <ele>521</ele>
        <time>2021-09-19T09:28:33Z</time>
      </trkpt>
      <trkpt lat="46.54964" lon="5.66859">
        <ele>525</ele>
        <time>2021-09-19T09:28:26Z</time>
      </trkpt>
      <trkpt lat="46.54962" lon="5.66866">
        <ele>526</ele>
        <time>2021-09-19T09:28:25Z</time>
      </trkpt>
      <trkpt lat="46.54969" lon="5.66874">
        <ele>527</ele>
        <time>2021-09-19T09:28:23Z</time>
      </trkpt>
      <trkpt lat="46.54996" lon="5.66884">
        <ele>526</ele>
        <time>2021-09-19T09:28:16Z</time>
      </trkpt>
      <trkpt lat="46.55034" lon="5.66905">
        <ele>520</ele>
        <time>2021-09-19T09:28:07Z</time>
      </trkpt>
      <trkpt lat="46.55067" lon="5.66946">
        <ele>518</ele>
        <time>2021-09-19T09:27:57Z</time>
      </trkpt>
      <trkpt lat="46.55081" lon="5.66988">
        <ele>520</ele>
        <time>2021-09-19T09:27:49Z</time>
      </trkpt>
      <trkpt lat="46.55081" lon="5.67029">
        <ele>521</ele>
        <time>2021-09-19T09:27:43Z</time>
      </trkpt>
      <trkpt lat="46.55072" lon="5.67069">
        <ele>525</ele>
        <time>2021-09-19T09:27:36Z</time>
      </trkpt>
      <trkpt lat="46.55047" lon="5.67127">
        <ele>531</ele>
        <time>2021-09-19T09:27:25Z</time>
      </trkpt>
      <trkpt lat="46.55004" lon="5.67242">
        <ele>530</ele>
        <time>2021-09-19T09:27:04Z</time>
      </trkpt>
      <trkpt lat="46.54977" lon="5.67299">
        <ele>525</ele>
        <time>2021-09-19T09:26:53Z</time>
      </trkpt>
      <trkpt lat="46.54956" lon="5.67363">
        <ele>519</ele>
        <time>2021-09-19T09:26:41Z</time>
      </trkpt>
      <trkpt lat="46.54925" lon="5.67412">
        <ele>521</ele>
        <time>2021-09-19T09:26:31Z</time>
      </trkpt>
      <trkpt lat="46.54915" lon="5.6742">
        <ele>522</ele>
        <time>2021-09-19T09:26:28Z</time>
      </trkpt>
      <trkpt lat="46.54898" lon="5.67423">
        <ele>523</ele>
        <time>2021-09-19T09:26:24Z</time>
      </trkpt>
      <trkpt lat="46.54882" lon="5.67415">
        <ele>526</ele>
        <time>2021-09-19T09:26:20Z</time>
      </trkpt>
      <trkpt lat="46.54848" lon="5.6737">
        <ele>534</ele>
        <time>2021-09-19T09:26:09Z</time>
      </trkpt>
      <trkpt lat="46.54813" lon="5.67316">
        <ele>540</ele>
        <time>2021-09-19T09:25:57Z</time>
      </trkpt>
      <trkpt lat="46.54786" lon="5.67258">
        <ele>547</ele>
        <time>2021-09-19T09:25:46Z</time>
      </trkpt>
      <trkpt lat="46.54746" lon="5.67226">
        <ele>550</ele>
        <time>2021-09-19T09:25:35Z</time>
      </trkpt>
      <trkpt lat="46.54734" lon="5.67222">
        <ele>551</ele>
        <time>2021-09-19T09:25:33Z</time>
      </trkpt>
      <trkpt lat="46.54698" lon="5.67187">
        <ele>554</ele>
        <time>2021-09-19T09:25:22Z</time>
      </trkpt>
      <trkpt lat="46.54617" lon="5.67185">
        <ele>553</ele>
        <time>2021-09-19T09:25:04Z</time>
      </trkpt>
      <trkpt lat="46.54605" lon="5.6717">
        <ele>554</ele>
        <time>2021-09-19T09:25:00Z</time>
      </trkpt>
      <trkpt lat="46.54564" lon="5.67133">
        <ele>558</ele>
        <time>2021-09-19T09:24:49Z</time>
      </trkpt>
      <trkpt lat="46.54547" lon="5.67121">
        <ele>559</ele>
        <time>2021-09-19T09:24:44Z</time>
      </trkpt>
      <trkpt lat="46.54538" lon="5.67107">
        <ele>561</ele>
        <time>2021-09-19T09:24:41Z</time>
      </trkpt>
      <trkpt lat="46.54517" lon="5.67089">
        <ele>563</ele>
        <time>2021-09-19T09:24:35Z</time>
      </trkpt>
      <trkpt lat="46.54433" lon="5.67046">
        <ele>569</ele>
        <time>2021-09-19T09:24:15Z</time>
      </trkpt>
      <trkpt lat="46.5438" lon="5.67">
        <ele>573</ele>
        <time>2021-09-19T09:24:00Z</time>
      </trkpt>
      <trkpt lat="46.54366" lon="5.66994">
        <ele>573</ele>
        <time>2021-09-19T09:23:57Z</time>
      </trkpt>
      <trkpt lat="46.54355" lon="5.66973">
        <ele>575</ele>
        <time>2021-09-19T09:23:53Z</time>
      </trkpt>
      <trkpt lat="46.54344" lon="5.66931">
        <ele>581</ele>
        <time>2021-09-19T09:23:45Z</time>
      </trkpt>
      <trkpt lat="46.54342" lon="5.66879">
        <ele>589</ele>
        <time>2021-09-19T09:23:37Z</time>
      </trkpt>
      <trkpt lat="46.54333" lon="5.66858">
        <ele>592</ele>
        <time>2021-09-19T09:23:33Z</time>
      </trkpt>
      <trkpt lat="46.5431" lon="5.6684">
        <ele>592</ele>
        <time>2021-09-19T09:23:27Z</time>
      </trkpt>
      <trkpt lat="46.54272" lon="5.66817">
        <ele>591</ele>
        <time>2021-09-19T09:23:17Z</time>
      </trkpt>
      <trkpt lat="46.5424" lon="5.66769">
        <ele>595</ele>
        <time>2021-09-19T09:23:07Z</time>
      </trkpt>
      <trkpt lat="46.54198" lon="5.66739">
        <ele>594</ele>
        <time>2021-09-19T09:22:56Z</time>
      </trkpt>
      <trkpt lat="46.54172" lon="5.66752">
        <ele>589</ele>
        <time>2021-09-19T09:22:49Z</time>
      </trkpt>
      <trkpt lat="46.54127" lon="5.66784">
        <ele>579</ele>
        <time>2021-09-19T09:22:37Z</time>
      </trkpt>
      <trkpt lat="46.54094" lon="5.66862">
        <ele>567</ele>
        <time>2021-09-19T09:22:23Z</time>
      </trkpt>
      <trkpt lat="46.54083" lon="5.66877">
        <ele>565</ele>
        <time>2021-09-19T09:22:19Z</time>
      </trkpt>
      <trkpt lat="46.54069" lon="5.66904">
        <ele>561</ele>
        <time>2021-09-19T09:22:14Z</time>
      </trkpt>
      <trkpt lat="46.54055" lon="5.66947">
        <ele>557</ele>
        <time>2021-09-19T09:22:06Z</time>
      </trkpt>
      <trkpt lat="46.54037" lon="5.66972">
        <ele>554</ele>
        <time>2021-09-19T09:22:00Z</time>
      </trkpt>
      <trkpt lat="46.53995" lon="5.66973">
        <ele>552</ele>
        <time>2021-09-19T09:21:51Z</time>
      </trkpt>
      <trkpt lat="46.5398" lon="5.66977">
        <ele>551</ele>
        <time>2021-09-19T09:21:47Z</time>
      </trkpt>
      <trkpt lat="46.53962" lon="5.66989">
        <ele>549</ele>
        <time>2021-09-19T09:21:42Z</time>
      </trkpt>
      <trkpt lat="46.5393" lon="5.67029">
        <ele>545</ele>
        <time>2021-09-19T09:21:33Z</time>
      </trkpt>
      <trkpt lat="46.53925" lon="5.6705">
        <ele>544</ele>
        <time>2021-09-19T09:21:29Z</time>
      </trkpt>
      <trkpt lat="46.5393" lon="5.67094">
        <ele>542</ele>
        <time>2021-09-19T09:21:22Z</time>
      </trkpt>
      <trkpt lat="46.53944" lon="5.67119">
        <ele>541</ele>
        <time>2021-09-19T09:21:17Z</time>
      </trkpt>
      <trkpt lat="46.53939" lon="5.67227">
        <ele>541</ele>
        <time>2021-09-19T09:20:59Z</time>
      </trkpt>
      <trkpt lat="46.53948" lon="5.67237">
        <ele>541</ele>
        <time>2021-09-19T09:20:57Z</time>
      </trkpt>
      <trkpt lat="46.54049" lon="5.67245">
        <ele>542</ele>
        <time>2021-09-19T09:20:33Z</time>
      </trkpt>
      <trkpt lat="46.54065" lon="5.67267">
        <ele>541</ele>
        <time>2021-09-19T09:20:28Z</time>
      </trkpt>
      <trkpt lat="46.54069" lon="5.67289">
        <ele>539</ele>
        <time>2021-09-19T09:20:24Z</time>
      </trkpt>
      <trkpt lat="46.54067" lon="5.67347">
        <ele>535</ele>
        <time>2021-09-19T09:20:15Z</time>
      </trkpt>
      <trkpt lat="46.5406" lon="5.67361">
        <ele>532</ele>
        <time>2021-09-19T09:20:12Z</time>
      </trkpt>
      <trkpt lat="46.54047" lon="5.67372">
        <ele>530</ele>
        <time>2021-09-19T09:20:09Z</time>
      </trkpt>
      <trkpt lat="46.54" lon="5.67394">
        <ele>522</ele>
        <time>2021-09-19T09:19:57Z</time>
      </trkpt>
      <trkpt lat="46.53981" lon="5.6739">
        <ele>523</ele>
        <time>2021-09-19T09:19:53Z</time>
      </trkpt>
      <trkpt lat="46.53951" lon="5.67393">
        <ele>521</ele>
        <time>2021-09-19T09:19:45Z</time>
      </trkpt>
      <trkpt lat="46.5391" lon="5.6742">
        <ele>513</ele>
        <time>2021-09-19T09:19:35Z</time>
      </trkpt>
      <trkpt lat="46.53866" lon="5.67439">
        <ele>508</ele>
        <time>2021-09-19T09:19:24Z</time>
      </trkpt>
      <trkpt lat="46.53777" lon="5.67457">
        <ele>505</ele>
        <time>2021-09-19T09:19:03Z</time>
      </trkpt>
      <trkpt lat="46.53664" lon="5.67496">
        <ele>492</ele>
        <time>2021-09-19T09:18:36Z</time>
      </trkpt>
      <trkpt lat="46.53562" lon="5.67567">
        <ele>476</ele>
        <time>2021-09-19T09:18:10Z</time>
      </trkpt>
      <trkpt lat="46.53475" lon="5.67618">
        <ele>472</ele>
        <time>2021-09-19T09:17:48Z</time>
      </trkpt>
      <trkpt lat="46.53434" lon="5.67649">
        <ele>465</ele>
        <time>2021-09-19T09:17:37Z</time>
      </trkpt>
      <trkpt lat="46.53315" lon="5.6772">
        <ele>461</ele>
        <time>2021-09-19T09:17:07Z</time>
      </trkpt>
      <trkpt lat="46.53183" lon="5.67806">
        <ele>456</ele>
        <time>2021-09-19T09:16:33Z</time>
      </trkpt>
      <trkpt lat="46.53164" lon="5.67812">
        <ele>458</ele>
        <time>2021-09-19T09:16:29Z</time>
      </trkpt>
      <trkpt lat="46.5314" lon="5.67835">
        <ele>456</ele>
        <time>2021-09-19T09:16:22Z</time>
      </trkpt>
      <trkpt lat="46.53102" lon="5.67887">
        <ele>451</ele>
        <time>2021-09-19T09:16:10Z</time>
      </trkpt>
      <trkpt lat="46.53059" lon="5.6793">
        <ele>451</ele>
        <time>2021-09-19T09:15:58Z</time>
      </trkpt>
      <trkpt lat="46.53041" lon="5.67947">
        <ele>451</ele>
        <time>2021-09-19T09:15:53Z</time>
      </trkpt>
      <trkpt lat="46.52995" lon="5.67977">
        <ele>454</ele>
        <time>2021-09-19T09:15:41Z</time>
      </trkpt>
      <trkpt lat="46.5296" lon="5.68015">
        <ele>459</ele>
        <time>2021-09-19T09:15:31Z</time>
      </trkpt>
      <trkpt lat="46.52925" lon="5.68062">
        <ele>459</ele>
        <time>2021-09-19T09:15:19Z</time>
      </trkpt>
      <trkpt lat="46.52895" lon="5.68113">
        <ele>460</ele>
        <time>2021-09-19T09:15:09Z</time>
      </trkpt>
      <trkpt lat="46.52862" lon="5.68156">
        <ele>464</ele>
        <time>2021-09-19T09:14:58Z</time>
      </trkpt>
      <trkpt lat="46.52814" lon="5.68249">
        <ele>466</ele>
        <time>2021-09-19T09:14:40Z</time>
      </trkpt>
      <trkpt lat="46.52771" lon="5.68375">
        <ele>471</ele>
        <time>2021-09-19T09:14:17Z</time>
      </trkpt>
      <trkpt lat="46.5276" lon="5.68419">
        <ele>472</ele>
        <time>2021-09-19T09:14:10Z</time>
      </trkpt>
      <trkpt lat="46.52752" lon="5.68475">
        <ele>467</ele>
        <time>2021-09-19T09:14:00Z</time>
      </trkpt>
      <trkpt lat="46.52748" lon="5.68539">
        <ele>464</ele>
        <time>2021-09-19T09:13:50Z</time>
      </trkpt>
      <trkpt lat="46.52753" lon="5.68642">
        <ele>459</ele>
        <time>2021-09-19T09:13:33Z</time>
      </trkpt>
      <trkpt lat="46.52748" lon="5.68684">
        <ele>463</ele>
        <time>2021-09-19T09:13:27Z</time>
      </trkpt>
      <trkpt lat="46.52757" lon="5.68749">
        <ele>465</ele>
        <time>2021-09-19T09:13:16Z</time>
      </trkpt>
      <trkpt lat="46.5277" lon="5.68814">
        <ele>471</ele>
        <time>2021-09-19T09:13:05Z</time>
      </trkpt>
      <trkpt lat="46.52787" lon="5.68874">
        <ele>471</ele>
        <time>2021-09-19T09:12:55Z</time>
      </trkpt>
      <trkpt lat="46.52817" lon="5.69002">
        <ele>462</ele>
        <time>2021-09-19T09:12:33Z</time>
      </trkpt>
      <trkpt lat="46.5283" lon="5.69035">
        <ele>452</ele>
        <time>2021-09-19T09:12:27Z</time>
      </trkpt>
      <trkpt lat="46.52834" lon="5.69063">
        <ele>449</ele>
        <time>2021-09-19T09:12:22Z</time>
      </trkpt>
      <trkpt lat="46.52824" lon="5.69108">
        <ele>452</ele>
        <time>2021-09-19T09:12:15Z</time>
      </trkpt>
      <trkpt lat="46.52804" lon="5.69166">
        <ele>456</ele>
        <time>2021-09-19T09:12:04Z</time>
      </trkpt>
      <trkpt lat="46.52788" lon="5.69226">
        <ele>454</ele>
        <time>2021-09-19T09:11:54Z</time>
      </trkpt>
      <trkpt lat="46.52763" lon="5.69286">
        <ele>452</ele>
        <time>2021-09-19T09:11:43Z</time>
      </trkpt>
      <trkpt lat="46.52747" lon="5.69307">
        <ele>453</ele>
        <time>2021-09-19T09:11:38Z</time>
      </trkpt>
      <trkpt lat="46.52665" lon="5.69445">
        <ele>457</ele>
        <time>2021-09-19T09:11:08Z</time>
      </trkpt>
      <trkpt lat="46.52634" lon="5.69509">
        <ele>467</ele>
        <time>2021-09-19T09:10:56Z</time>
      </trkpt>
      <trkpt lat="46.52592" lon="5.69637">
        <ele>473</ele>
        <time>2021-09-19T09:10:33Z</time>
      </trkpt>
      <trkpt lat="46.52551" lon="5.69665">
        <ele>483</ele>
        <time>2021-09-19T09:10:22Z</time>
      </trkpt>
      <trkpt lat="46.52516" lon="5.69625">
        <ele>501</ele>
        <time>2021-09-19T09:10:12Z</time>
      </trkpt>
      <trkpt lat="46.52452" lon="5.69583">
        <ele>512</ele>
        <time>2021-09-19T09:09:56Z</time>
      </trkpt>
      <trkpt lat="46.52428" lon="5.69577">
        <ele>512</ele>
        <time>2021-09-19T09:09:50Z</time>
      </trkpt>
      <trkpt lat="46.52394" lon="5.69579">
        <ele>505</ele>
        <time>2021-09-19T09:09:42Z</time>
      </trkpt>
      <trkpt lat="46.52377" lon="5.69569">
        <ele>501</ele>
        <time>2021-09-19T09:09:38Z</time>
      </trkpt>
      <trkpt lat="46.52354" lon="5.69532">
        <ele>494</ele>
        <time>2021-09-19T09:09:30Z</time>
      </trkpt>
      <trkpt lat="46.52349" lon="5.69512">
        <ele>493</ele>
        <time>2021-09-19T09:09:26Z</time>
      </trkpt>
      <trkpt lat="46.52348" lon="5.69458">
        <ele>494</ele>
        <time>2021-09-19T09:09:17Z</time>
      </trkpt>
      <trkpt lat="46.5234" lon="5.69439">
        <ele>492</ele>
        <time>2021-09-19T09:09:14Z</time>
      </trkpt>
      <trkpt lat="46.52341" lon="5.69398">
        <ele>494</ele>
        <time>2021-09-19T09:09:07Z</time>
      </trkpt>
      <trkpt lat="46.52351" lon="5.69369">
        <ele>497</ele>
        <time>2021-09-19T09:09:02Z</time>
      </trkpt>
      <trkpt lat="46.52374" lon="5.69349">
        <ele>504</ele>
        <time>2021-09-19T09:08:56Z</time>
      </trkpt>
      <trkpt lat="46.52395" lon="5.69318">
        <ele>511</ele>
        <time>2021-09-19T09:08:49Z</time>
      </trkpt>
      <trkpt lat="46.5242" lon="5.69296">
        <ele>518</ele>
        <time>2021-09-19T09:08:42Z</time>
      </trkpt>
      <trkpt lat="46.52467" lon="5.69311">
        <ele>518</ele>
        <time>2021-09-19T09:08:31Z</time>
      </trkpt>
      <trkpt lat="46.52489" lon="5.69311">
        <ele>519</ele>
        <time>2021-09-19T09:08:26Z</time>
      </trkpt>
      <trkpt lat="46.52512" lon="5.69294">
        <ele>519</ele>
        <time>2021-09-19T09:08:20Z</time>
      </trkpt>
      <trkpt lat="46.52531" lon="5.69257">
        <ele>521</ele>
        <time>2021-09-19T09:08:12Z</time>
      </trkpt>
      <trkpt lat="46.5255" lon="5.69208">
        <ele>524</ele>
        <time>2021-09-19T09:08:03Z</time>
      </trkpt>
      <trkpt lat="46.5256" lon="5.69167">
        <ele>527</ele>
        <time>2021-09-19T09:07:56Z</time>
      </trkpt>
      <trkpt lat="46.52552" lon="5.69126">
        <ele>526</ele>
        <time>2021-09-19T09:07:49Z</time>
      </trkpt>
      <trkpt lat="46.52545" lon="5.6907">
        <ele>526</ele>
        <time>2021-09-19T09:07:40Z</time>
      </trkpt>
      <trkpt lat="46.52535" lon="5.69033">
        <ele>526</ele>
        <time>2021-09-19T09:07:34Z</time>
      </trkpt>
      <trkpt lat="46.52528" lon="5.6896">
        <ele>528</ele>
        <time>2021-09-19T09:07:22Z</time>
      </trkpt>
      <trkpt lat="46.52502" lon="5.68855">
        <ele>532</ele>
        <time>2021-09-19T09:07:04Z</time>
      </trkpt>
      <trkpt lat="46.52501" lon="5.68826">
        <ele>533</ele>
        <time>2021-09-19T09:06:59Z</time>
      </trkpt>
      <trkpt lat="46.5249" lon="5.6881">
        <ele>532</ele>
        <time>2021-09-19T09:06:56Z</time>
      </trkpt>
      <trkpt lat="46.5246" lon="5.68811">
        <ele>530</ele>
        <time>2021-09-19T09:06:49Z</time>
      </trkpt>
      <trkpt lat="46.52451" lon="5.68825">
        <ele>529</ele>
        <time>2021-09-19T09:06:46Z</time>
      </trkpt>
      <trkpt lat="46.52429" lon="5.6883">
        <ele>527</ele>
        <time>2021-09-19T09:06:40Z</time>
      </trkpt>
      <trkpt lat="46.52376" lon="5.68823">
        <ele>516</ele>
        <time>2021-09-19T09:06:28Z</time>
      </trkpt>
      <trkpt lat="46.52357" lon="5.68795">
        <ele>511</ele>
        <time>2021-09-19T09:06:22Z</time>
      </trkpt>
      <trkpt lat="46.5235" lon="5.68761">
        <ele>508</ele>
        <time>2021-09-19T09:06:16Z</time>
      </trkpt>
      <trkpt lat="46.52349" lon="5.6871">
        <ele>505</ele>
        <time>2021-09-19T09:06:08Z</time>
      </trkpt>
      <trkpt lat="46.52355" lon="5.68628">
        <ele>500</ele>
        <time>2021-09-19T09:05:55Z</time>
      </trkpt>
      <trkpt lat="46.52374" lon="5.68471">
        <ele>498</ele>
        <time>2021-09-19T09:05:29Z</time>
      </trkpt>
      <trkpt lat="46.52374" lon="5.68358">
        <ele>494</ele>
        <time>2021-09-19T09:05:11Z</time>
      </trkpt>
      <trkpt lat="46.5237" lon="5.68289">
        <ele>494</ele>
        <time>2021-09-19T09:05:00Z</time>
      </trkpt>
      <trkpt lat="46.52363" lon="5.68248">
        <ele>494</ele>
        <time>2021-09-19T09:04:53Z</time>
      </trkpt>
      <trkpt lat="46.52293" lon="5.6808">
        <ele>484</ele>
        <time>2021-09-19T09:04:21Z</time>
      </trkpt>
      <trkpt lat="46.52287" lon="5.6805">
        <ele>480</ele>
        <time>2021-09-19T09:04:16Z</time>
      </trkpt>
      <trkpt lat="46.52297" lon="5.6796">
        <ele>478</ele>
        <time>2021-09-19T09:04:02Z</time>
      </trkpt>
      <trkpt lat="46.5231" lon="5.67937">
        <ele>479</ele>
        <time>2021-09-19T09:03:57Z</time>
      </trkpt>
      <trkpt lat="46.52327" lon="5.67841">
        <ele>468</ele>
        <time>2021-09-19T09:03:41Z</time>
      </trkpt>
      <trkpt lat="46.52334" lon="5.67824">
        <ele>468</ele>
        <time>2021-09-19T09:03:38Z</time>
      </trkpt>
      <trkpt lat="46.52334" lon="5.67811">
        <ele>467</ele>
        <time>2021-09-19T09:03:36Z</time>
      </trkpt>
      <trkpt lat="46.52328" lon="5.67804">
        <ele>465</ele>
        <time>2021-09-19T09:03:34Z</time>
      </trkpt>
      <trkpt lat="46.52323" lon="5.67781">
        <ele>462</ele>
        <time>2021-09-19T09:03:30Z</time>
      </trkpt>
      <trkpt lat="46.52326" lon="5.67712">
        <ele>458</ele>
        <time>2021-09-19T09:03:19Z</time>
      </trkpt>
      <trkpt lat="46.52339" lon="5.67667">
        <ele>458</ele>
        <time>2021-09-19T09:03:11Z</time>
      </trkpt>
      <trkpt lat="46.52352" lon="5.67657">
        <ele>462</ele>
        <time>2021-09-19T09:03:08Z</time>
      </trkpt>
      <trkpt lat="46.52364" lon="5.67605">
        <ele>465</ele>
        <time>2021-09-19T09:02:59Z</time>
      </trkpt>
      <trkpt lat="46.52365" lon="5.6758">
        <ele>465</ele>
        <time>2021-09-19T09:02:55Z</time>
      </trkpt>
      <trkpt lat="46.52359" lon="5.67525">
        <ele>463</ele>
        <time>2021-09-19T09:02:46Z</time>
      </trkpt>
      <trkpt lat="46.52358" lon="5.67486">
        <ele>463</ele>
        <time>2021-09-19T09:02:40Z</time>
      </trkpt>
      <trkpt lat="46.52298" lon="5.67273">
        <ele>462</ele>
        <time>2021-09-19T09:02:03Z</time>
      </trkpt>
      <trkpt lat="46.52269" lon="5.67199">
        <ele>461</ele>
        <time>2021-09-19T09:01:49Z</time>
      </trkpt>
      <trkpt lat="46.52252" lon="5.67178">
        <ele>458</ele>
        <time>2021-09-19T09:01:44Z</time>
      </trkpt>
      <trkpt lat="46.52233" lon="5.67165">
        <ele>458</ele>
        <time>2021-09-19T09:01:39Z</time>
      </trkpt>
      <trkpt lat="46.52172" lon="5.67141">
        <ele>459</ele>
        <time>2021-09-19T09:01:24Z</time>
      </trkpt>
      <trkpt lat="46.5213" lon="5.67119">
        <ele>463</ele>
        <time>2021-09-19T09:01:14Z</time>
      </trkpt>
      <trkpt lat="46.52104" lon="5.6711">
        <ele>464</ele>
        <time>2021-09-19T09:01:07Z</time>
      </trkpt>
      <trkpt lat="46.52071" lon="5.67112">
        <ele>462</ele>
        <time>2021-09-19T09:01:00Z</time>
      </trkpt>
      <trkpt lat="46.52066" lon="5.67153">
        <ele>453</ele>
        <time>2021-09-19T09:00:53Z</time>
      </trkpt>
      <trkpt lat="46.52056" lon="5.67161">
        <ele>450</ele>
        <time>2021-09-19T09:00:50Z</time>
      </trkpt>
      <trkpt lat="46.51969" lon="5.67116">
        <ele>464</ele>
        <time>2021-09-19T09:00:29Z</time>
      </trkpt>
      <trkpt lat="46.51942" lon="5.6714">
        <ele>460</ele>
        <time>2021-09-19T09:00:21Z</time>
      </trkpt>
      <trkpt lat="46.51935" lon="5.67156">
        <ele>455</ele>
        <time>2021-09-19T09:00:18Z</time>
      </trkpt>
      <trkpt lat="46.51884" lon="5.67195">
        <ele>456</ele>
        <time>2021-09-19T09:00:05Z</time>
      </trkpt>
      <trkpt lat="46.51862" lon="5.67229">
        <ele>452</ele>
        <time>2021-09-19T08:59:57Z</time>
      </trkpt>
      <trkpt lat="46.51841" lon="5.67243">
        <ele>452</ele>
        <time>2021-09-19T08:59:52Z</time>
      </trkpt>
      <trkpt lat="46.51829" lon="5.67266">
        <ele>449</ele>
        <time>2021-09-19T08:59:47Z</time>
      </trkpt>
      <trkpt lat="46.51769" lon="5.67312">
        <ele>453</ele>
        <time>2021-09-19T08:59:31Z</time>
      </trkpt>
      <trkpt lat="46.51741" lon="5.67343">
        <ele>450</ele>
        <time>2021-09-19T08:59:23Z</time>
      </trkpt>
      <trkpt lat="46.51734" lon="5.67334">
        <ele>453</ele>
        <time>2021-09-19T08:59:21Z</time>
      </trkpt>
      <trkpt lat="46.51734" lon="5.67334">
        <ele>453</ele>
        <time>2021-09-19T08:59:21Z</time>
      </trkpt>
      <trkpt lat="46.51734" lon="5.67334">
        <ele>453</ele>
        <time>2021-09-19T11:03:58Z</time>
      </trkpt>
      <trkpt lat="46.51718" lon="5.67323">
        <ele>460</ele>
        <time>2021-09-19T11:03:54Z</time>
      </trkpt>
      <trkpt lat="46.51693" lon="5.67336">
        <ele>459</ele>
        <time>2021-09-19T11:03:48Z</time>
      </trkpt>
      <trkpt lat="46.51676" lon="5.6735">
        <ele>456</ele>
        <time>2021-09-19T11:03:43Z</time>
      </trkpt>
      <trkpt lat="46.51661" lon="5.67368">
        <ele>449</ele>
        <time>2021-09-19T11:03:39Z</time>
      </trkpt>
      <trkpt lat="46.51449" lon="5.67861">
        <ele>462</ele>
        <time>2021-09-19T11:02:05Z</time>
      </trkpt>
      <trkpt lat="46.5143" lon="5.67922">
        <ele>465</ele>
        <time>2021-09-19T11:01:55Z</time>
      </trkpt>
      <trkpt lat="46.5142" lon="5.67981">
        <ele>467</ele>
        <time>2021-09-19T11:01:45Z</time>
      </trkpt>
      <trkpt lat="46.51412" lon="5.68064">
        <ele>468</ele>
        <time>2021-09-19T11:01:31Z</time>
      </trkpt>
      <trkpt lat="46.51405" lon="5.68076">
        <ele>467</ele>
        <time>2021-09-19T11:01:29Z</time>
      </trkpt>
      <trkpt lat="46.51388" lon="5.68072">
        <ele>463</ele>
        <time>2021-09-19T11:01:25Z</time>
      </trkpt>
      <trkpt lat="46.51371" lon="5.68074">
        <ele>459</ele>
        <time>2021-09-19T11:01:21Z</time>
      </trkpt>
      <trkpt lat="46.51346" lon="5.68093">
        <ele>453</ele>
        <time>2021-09-19T11:01:14Z</time>
      </trkpt>
      <trkpt lat="46.51335" lon="5.68113">
        <ele>451</ele>
        <time>2021-09-19T11:01:10Z</time>
      </trkpt>
      <trkpt lat="46.51329" lon="5.68147">
        <ele>451</ele>
        <time>2021-09-19T11:01:05Z</time>
      </trkpt>
      <trkpt lat="46.51298" lon="5.68429">
        <ele>461</ele>
        <time>2021-09-19T11:00:19Z</time>
      </trkpt>
      <trkpt lat="46.51274" lon="5.68617">
        <ele>471</ele>
        <time>2021-09-19T10:59:48Z</time>
      </trkpt>
      <trkpt lat="46.5125" lon="5.68703">
        <ele>472</ele>
        <time>2021-09-19T10:59:33Z</time>
      </trkpt>
      <trkpt lat="46.51242" lon="5.68768">
        <ele>479</ele>
        <time>2021-09-19T10:59:22Z</time>
      </trkpt>
      <trkpt lat="46.51229" lon="5.68835">
        <ele>484</ele>
        <time>2021-09-19T10:59:11Z</time>
      </trkpt>
      <trkpt lat="46.51208" lon="5.6891">
        <ele>489</ele>
        <time>2021-09-19T10:58:58Z</time>
      </trkpt>
      <trkpt lat="46.51194" lon="5.68923">
        <ele>489</ele>
        <time>2021-09-19T10:58:54Z</time>
      </trkpt>
      <trkpt lat="46.51178" lon="5.68929">
        <ele>487</ele>
        <time>2021-09-19T10:58:50Z</time>
      </trkpt>
      <trkpt lat="46.51143" lon="5.68918">
        <ele>482</ele>
        <time>2021-09-19T10:58:42Z</time>
      </trkpt>
      <trkpt lat="46.51125" lon="5.68922">
        <ele>482</ele>
        <time>2021-09-19T10:58:38Z</time>
      </trkpt>
      <trkpt lat="46.51085" lon="5.68951">
        <ele>485</ele>
        <time>2021-09-19T10:58:27Z</time>
      </trkpt>
      <trkpt lat="46.50886" lon="5.69116">
        <ele>483</ele>
        <time>2021-09-19T10:57:34Z</time>
      </trkpt>
      <trkpt lat="46.50844" lon="5.69155">
        <ele>485</ele>
        <time>2021-09-19T10:57:22Z</time>
      </trkpt>
      <trkpt lat="46.50799" lon="5.69186">
        <ele>486</ele>
        <time>2021-09-19T10:57:11Z</time>
      </trkpt>
      <trkpt lat="46.50751" lon="5.69208">
        <ele>484</ele>
        <time>2021-09-19T10:56:59Z</time>
      </trkpt>
      <trkpt lat="46.50707" lon="5.69234">
        <ele>484</ele>
        <time>2021-09-19T10:56:48Z</time>
      </trkpt>
      <trkpt lat="46.50489" lon="5.69386">
        <ele>500</ele>
        <time>2021-09-19T10:55:51Z</time>
      </trkpt>
      <trkpt lat="46.50464" lon="5.69406">
        <ele>504</ele>
        <time>2021-09-19T10:55:45Z</time>
      </trkpt>
      <trkpt lat="46.50448" lon="5.69428">
        <ele>509</ele>
        <time>2021-09-19T10:55:40Z</time>
      </trkpt>
      <trkpt lat="46.50433" lon="5.69426">
        <ele>506</ele>
        <time>2021-09-19T10:55:36Z</time>
      </trkpt>
      <trkpt lat="46.50366" lon="5.69398">
        <ele>500</ele>
        <time>2021-09-19T10:55:20Z</time>
      </trkpt>
      <trkpt lat="46.50316" lon="5.69402">
        <ele>506</ele>
        <time>2021-09-19T10:55:08Z</time>
      </trkpt>
      <trkpt lat="46.50281" lon="5.69435">
        <ele>514</ele>
        <time>2021-09-19T10:54:58Z</time>
      </trkpt>
      <trkpt lat="46.50245" lon="5.6948">
        <ele>520</ele>
        <time>2021-09-19T10:54:47Z</time>
      </trkpt>
      <trkpt lat="46.50227" lon="5.69494">
        <ele>521</ele>
        <time>2021-09-19T10:54:42Z</time>
      </trkpt>
      <trkpt lat="46.5021" lon="5.69505">
        <ele>522</ele>
        <time>2021-09-19T10:54:38Z</time>
      </trkpt>
      <trkpt lat="46.50163" lon="5.69512">
        <ele>523</ele>
        <time>2021-09-19T10:54:27Z</time>
      </trkpt>
      <trkpt lat="46.50161" lon="5.69513">
        <ele>523.6</ele>
      </trkpt>
      <trkpt lat="46.50156" lon="5.69522">
        <ele>524.1</ele>
      </trkpt>
      <trkpt lat="46.50213" lon="5.6954">
        <ele>522.8</ele>
      </trkpt>
      <trkpt lat="46.50289" lon="5.69581">
        <ele>525.3</ele>
      </trkpt>
      <trkpt lat="46.50331" lon="5.69608">
        <ele>528.5</ele>
      </trkpt>
      <trkpt lat="46.50381" lon="5.69633">
        <ele>532.9</ele>
      </trkpt>
      <trkpt lat="46.50415" lon="5.69662">
        <ele>535.8</ele>
      </trkpt>
      <trkpt lat="46.50446" lon="5.69701">
        <ele>535</ele>
        <time>2021-09-19T10:52:07Z</time>
      </trkpt>
      <trkpt lat="46.50471" lon="5.6975">
        <ele>533</ele>
        <time>2021-09-19T10:51:58Z</time>
      </trkpt>
      <trkpt lat="46.5048" lon="5.69776">
        <ele>533</ele>
        <time>2021-09-19T10:51:53Z</time>
      </trkpt>
      <trkpt lat="46.5054" lon="5.69859">
        <ele>532</ele>
        <time>2021-09-19T10:51:34Z</time>
      </trkpt>
      <trkpt lat="46.50596" lon="5.6991">
        <ele>532</ele>
        <time>2021-09-19T10:51:18Z</time>
      </trkpt>
      <trkpt lat="46.50602" lon="5.69924">
        <ele>532</ele>
        <time>2021-09-19T10:51:15Z</time>
      </trkpt>
      <trkpt lat="46.50616" lon="5.69978">
        <ele>531</ele>
        <time>2021-09-19T10:51:06Z</time>
      </trkpt>
      <trkpt lat="46.50635" lon="5.70001">
        <ele>531</ele>
        <time>2021-09-19T10:51:00Z</time>
      </trkpt>
      <trkpt lat="46.50667" lon="5.7003">
        <ele>531</ele>
        <time>2021-09-19T10:50:52Z</time>
      </trkpt>
      <trkpt lat="46.50731" lon="5.70113">
        <ele>532</ele>
        <time>2021-09-19T10:50:32Z</time>
      </trkpt>
      <trkpt lat="46.50941" lon="5.70367">
        <ele>534</ele>
        <time>2021-09-19T10:49:28Z</time>
      </trkpt>
      <trkpt lat="46.50967" lon="5.70392">
        <ele>534</ele>
        <time>2021-09-19T10:49:20Z</time>
      </trkpt>
      <trkpt lat="46.50991" lon="5.70426">
        <ele>534</ele>
        <time>2021-09-19T10:49:13Z</time>
      </trkpt>
      <trkpt lat="46.51016" lon="5.70446">
        <ele>534</ele>
        <time>2021-09-19T10:49:06Z</time>
      </trkpt>
      <trkpt lat="46.5103" lon="5.70466">
        <ele>535</ele>
        <time>2021-09-19T10:49:01Z</time>
      </trkpt>
      <trkpt lat="46.51054" lon="5.70528">
        <ele>535</ele>
        <time>2021-09-19T10:48:50Z</time>
      </trkpt>
      <trkpt lat="46.51115" lon="5.70642">
        <ele>533</ele>
        <time>2021-09-19T10:48:27Z</time>
      </trkpt>
      <trkpt lat="46.51123" lon="5.70671">
        <ele>533</ele>
        <time>2021-09-19T10:48:22Z</time>
      </trkpt>
      <trkpt lat="46.51116" lon="5.70706">
        <ele>534</ele>
        <time>2021-09-19T10:48:16Z</time>
      </trkpt>
      <trkpt lat="46.51123" lon="5.70727">
        <ele>534</ele>
        <time>2021-09-19T10:48:12Z</time>
      </trkpt>
      <trkpt lat="46.51144" lon="5.70762">
        <ele>535</ele>
        <time>2021-09-19T10:48:05Z</time>
      </trkpt>
      <trkpt lat="46.51221" lon="5.70824">
        <ele>537</ele>
        <time>2021-09-19T10:47:44Z</time>
      </trkpt>
      <trkpt lat="46.51228" lon="5.7084">
        <ele>537</ele>
        <time>2021-09-19T10:47:41Z</time>
      </trkpt>
      <trkpt lat="46.5123" lon="5.7086">
        <ele>538</ele>
        <time>2021-09-19T10:47:38Z</time>
      </trkpt>
      <trkpt lat="46.51224" lon="5.70888">
        <ele>540</ele>
        <time>2021-09-19T10:47:33Z</time>
      </trkpt>
      <trkpt lat="46.51208" lon="5.70931">
        <ele>541</ele>
        <time>2021-09-19T10:47:25Z</time>
      </trkpt>
      <trkpt lat="46.51174" lon="5.71001">
        <ele>542</ele>
        <time>2021-09-19T10:47:11Z</time>
      </trkpt>
      <trkpt lat="46.51168" lon="5.71023">
        <ele>543</ele>
        <time>2021-09-19T10:47:08Z</time>
      </trkpt>
      <trkpt lat="46.51167" lon="5.7106">
        <ele>543</ele>
        <time>2021-09-19T10:47:02Z</time>
      </trkpt>
      <trkpt lat="46.51181" lon="5.71086">
        <ele>543</ele>
        <time>2021-09-19T10:46:56Z</time>
      </trkpt>
      <trkpt lat="46.51194" lon="5.71127">
        <ele>541</ele>
        <time>2021-09-19T10:46:49Z</time>
      </trkpt>
      <trkpt lat="46.51202" lon="5.71195">
        <ele>540</ele>
        <time>2021-09-19T10:46:38Z</time>
      </trkpt>
      <trkpt lat="46.51202" lon="5.71227">
        <ele>540</ele>
        <time>2021-09-19T10:46:33Z</time>
      </trkpt>
      <trkpt lat="46.51197" lon="5.71263">
        <ele>540</ele>
        <time>2021-09-19T10:46:27Z</time>
      </trkpt>
      <trkpt lat="46.51186" lon="5.71307">
        <ele>540</ele>
        <time>2021-09-19T10:46:19Z</time>
      </trkpt>
      <trkpt lat="46.51185" lon="5.714">
        <ele>540</ele>
        <time>2021-09-19T10:46:05Z</time>
      </trkpt>
      <trkpt lat="46.51181" lon="5.71427">
        <ele>540</ele>
        <time>2021-09-19T10:46:00Z</time>
      </trkpt>
      <trkpt lat="46.5116" lon="5.7152">
        <ele>540</ele>
        <time>2021-09-19T10:45:44Z</time>
      </trkpt>
      <trkpt lat="46.51158" lon="5.71546">
        <ele>540</ele>
        <time>2021-09-19T10:45:40Z</time>
      </trkpt>
      <trkpt lat="46.51163" lon="5.71572">
        <ele>539</ele>
        <time>2021-09-19T10:45:36Z</time>
      </trkpt>
      <trkpt lat="46.51178" lon="5.71602">
        <ele>539</ele>
        <time>2021-09-19T10:45:30Z</time>
      </trkpt>
      <trkpt lat="46.51185" lon="5.71629">
        <ele>539</ele>
        <time>2021-09-19T10:45:25Z</time>
      </trkpt>
      <trkpt lat="46.51209" lon="5.71764">
        <ele>539</ele>
        <time>2021-09-19T10:45:03Z</time>
      </trkpt>
      <trkpt lat="46.51231" lon="5.71845">
        <ele>538</ele>
        <time>2021-09-19T10:44:49Z</time>
      </trkpt>
      <trkpt lat="46.51247" lon="5.71873">
        <ele>538</ele>
        <time>2021-09-19T10:44:43Z</time>
      </trkpt>
      <trkpt lat="46.513" lon="5.71917">
        <ele>537</ele>
        <time>2021-09-19T10:44:29Z</time>
      </trkpt>
      <trkpt lat="46.51325" lon="5.71934">
        <ele>537</ele>
        <time>2021-09-19T10:44:22Z</time>
      </trkpt>
      <trkpt lat="46.51373" lon="5.7194">
        <ele>540</ele>
        <time>2021-09-19T10:44:11Z</time>
      </trkpt>
      <trkpt lat="46.51417" lon="5.71957">
        <ele>543</ele>
        <time>2021-09-19T10:44:00Z</time>
      </trkpt>
      <trkpt lat="46.5143" lon="5.71978">
        <ele>544</ele>
        <time>2021-09-19T10:43:56Z</time>
      </trkpt>
      <trkpt lat="46.51453" lon="5.7203">
        <ele>544</ele>
        <time>2021-09-19T10:43:46Z</time>
      </trkpt>
      <trkpt lat="46.51483" lon="5.72061">
        <ele>543</ele>
        <time>2021-09-19T10:43:37Z</time>
      </trkpt>
      <trkpt lat="46.51497" lon="5.72089">
        <ele>542</ele>
        <time>2021-09-19T10:43:32Z</time>
      </trkpt>
      <trkpt lat="46.51518" lon="5.7212">
        <ele>541</ele>
        <time>2021-09-19T10:43:25Z</time>
      </trkpt>
      <trkpt lat="46.51551" lon="5.72156">
        <ele>535</ele>
        <time>2021-09-19T10:43:15Z</time>
      </trkpt>
      <trkpt lat="46.51551" lon="5.72206">
        <ele>529</ele>
        <time>2021-09-19T10:43:07Z</time>
      </trkpt>
      <trkpt lat="46.51583" lon="5.72225">
        <ele>518</ele>
        <time>2021-09-19T10:42:59Z</time>
      </trkpt>
      <trkpt lat="46.51629" lon="5.72215">
        <ele>514</ele>
        <time>2021-09-19T10:42:48Z</time>
      </trkpt>
      <trkpt lat="46.51675" lon="5.72211">
        <ele>510</ele>
        <time>2021-09-19T10:42:37Z</time>
      </trkpt>
      <trkpt lat="46.51718" lon="5.72189">
        <ele>511</ele>
        <time>2021-09-19T10:42:27Z</time>
      </trkpt>
      <trkpt lat="46.51763" lon="5.72197">
        <ele>504</ele>
        <time>2021-09-19T10:42:16Z</time>
      </trkpt>
      <trkpt lat="46.51828" lon="5.72187">
        <ele>500</ele>
        <time>2021-09-19T10:42:01Z</time>
      </trkpt>
      <trkpt lat="46.51892" lon="5.72184">
        <ele>491</ele>
        <time>2021-09-19T10:41:46Z</time>
      </trkpt>
      <trkpt lat="46.51932" lon="5.72152">
        <ele>489</ele>
        <time>2021-09-19T10:41:35Z</time>
      </trkpt>
      <trkpt lat="46.5197" lon="5.72153">
        <ele>480</ele>
        <time>2021-09-19T10:41:26Z</time>
      </trkpt>
      <trkpt lat="46.52001" lon="5.72141">
        <ele>475</ele>
        <time>2021-09-19T10:41:19Z</time>
      </trkpt>
      <trkpt lat="46.52025" lon="5.72116">
        <ele>473</ele>
        <time>2021-09-19T10:41:12Z</time>
      </trkpt>
      <trkpt lat="46.5206" lon="5.72101">
        <ele>466</ele>
        <time>2021-09-19T10:41:03Z</time>
      </trkpt>
      <trkpt lat="46.52066" lon="5.72106">
        <ele>464</ele>
        <time>2021-09-19T10:41:02Z</time>
      </trkpt>
      <trkpt lat="46.52068" lon="5.72118">
        <ele>462</ele>
        <time>2021-09-19T10:41:00Z</time>
      </trkpt>
      <trkpt lat="46.52052" lon="5.72158">
        <ele>461</ele>
        <time>2021-09-19T10:40:52Z</time>
      </trkpt>
      <trkpt lat="46.52048" lon="5.72225">
        <ele>455</ele>
        <time>2021-09-19T10:40:42Z</time>
      </trkpt>
      <trkpt lat="46.52044" lon="5.72238">
        <ele>455</ele>
        <time>2021-09-19T10:40:39Z</time>
      </trkpt>
      <trkpt lat="46.52023" lon="5.72277">
        <ele>455</ele>
        <time>2021-09-19T10:40:31Z</time>
      </trkpt>
      <trkpt lat="46.52021" lon="5.72294">
        <ele>454</ele>
        <time>2021-09-19T10:40:29Z</time>
      </trkpt>
      <trkpt lat="46.52033" lon="5.7231">
        <ele>451</ele>
        <time>2021-09-19T10:40:25Z</time>
      </trkpt>
      <trkpt lat="46.52056" lon="5.72304">
        <ele>448</ele>
        <time>2021-09-19T10:40:19Z</time>
      </trkpt>
      <trkpt lat="46.52074" lon="5.72288">
        <ele>447</ele>
        <time>2021-09-19T10:40:14Z</time>
      </trkpt>
      <trkpt lat="46.52091" lon="5.72293">
        <ele>444</ele>
        <time>2021-09-19T10:40:10Z</time>
      </trkpt>
      <trkpt lat="46.52103" lon="5.72313">
        <ele>443</ele>
        <time>2021-09-19T10:40:06Z</time>
      </trkpt>
      <trkpt lat="46.52122" lon="5.72334">
        <ele>442</ele>
        <time>2021-09-19T10:40:01Z</time>
      </trkpt>
      <trkpt lat="46.52148" lon="5.72342">
        <ele>442</ele>
        <time>2021-09-19T10:39:54Z</time>
      </trkpt>
      <trkpt lat="46.52156" lon="5.72331">
        <ele>441</ele>
        <time>2021-09-19T10:39:52Z</time>
      </trkpt>
      <trkpt lat="46.52173" lon="5.7233">
        <ele>441</ele>
        <time>2021-09-19T10:39:48Z</time>
      </trkpt>
      <trkpt lat="46.52187" lon="5.7232">
        <ele>442</ele>
        <time>2021-09-19T10:39:44Z</time>
      </trkpt>
      <trkpt lat="46.5219" lon="5.72304">
        <ele>441</ele>
        <time>2021-09-19T10:39:41Z</time>
      </trkpt>
      <trkpt lat="46.5219" lon="5.72264">
        <ele>439</ele>
        <time>2021-09-19T10:39:35Z</time>
      </trkpt>
      <trkpt lat="46.52189" lon="5.72305">
        <ele>441</ele>
        <time>2021-09-19T10:39:28Z</time>
      </trkpt>
      <trkpt lat="46.52186" lon="5.7232">
        <ele>442</ele>
        <time>2021-09-19T10:39:26Z</time>
      </trkpt>
      <trkpt lat="46.5217" lon="5.72331">
        <ele>441</ele>
        <time>2021-09-19T10:39:22Z</time>
      </trkpt>
      <trkpt lat="46.52156" lon="5.72331">
        <ele>441</ele>
        <time>2021-09-19T10:39:19Z</time>
      </trkpt>
      <trkpt lat="46.52149" lon="5.7234">
        <ele>442</ele>
        <time>2021-09-19T10:39:16Z</time>
      </trkpt>
      <trkpt lat="46.52164" lon="5.72348">
        <ele>442</ele>
        <time>2021-09-19T10:39:13Z</time>
      </trkpt>
      <trkpt lat="46.52212" lon="5.7234">
        <ele>446</ele>
        <time>2021-09-19T10:39:01Z</time>
      </trkpt>
      <trkpt lat="46.52221" lon="5.72349">
        <ele>448</ele>
        <time>2021-09-19T10:38:59Z</time>
      </trkpt>
      <trkpt lat="46.52225" lon="5.72366">
        <ele>450</ele>
        <time>2021-09-19T10:38:56Z</time>
      </trkpt>
      <trkpt lat="46.52219" lon="5.72386">
        <ele>451</ele>
        <time>2021-09-19T10:38:52Z</time>
      </trkpt>
      <trkpt lat="46.52199" lon="5.72429">
        <ele>451</ele>
        <time>2021-09-19T10:38:44Z</time>
      </trkpt>
      <trkpt lat="46.52194" lon="5.72463">
        <ele>453</ele>
        <time>2021-09-19T10:38:38Z</time>
      </trkpt>
      <trkpt lat="46.5219" lon="5.72591">
        <ele>462</ele>
        <time>2021-09-19T10:38:18Z</time>
      </trkpt>
      <trkpt lat="46.52195" lon="5.72618">
        <ele>462</ele>
        <time>2021-09-19T10:38:13Z</time>
      </trkpt>
      <trkpt lat="46.52205" lon="5.72618">
        <ele>464</ele>
        <time>2021-09-19T10:38:11Z</time>
      </trkpt>
      <trkpt lat="46.52199" lon="5.72626">
        <ele>463</ele>
        <time>2021-09-19T10:17:55Z</time>
      </trkpt>
      <trkpt lat="46.52194" lon="5.72623">
        <ele>462</ele>
        <time>2021-09-19T10:17:56Z</time>
      </trkpt>
      <trkpt lat="46.52188" lon="5.72599">
        <ele>461</ele>
        <time>2021-09-19T10:18:00Z</time>
      </trkpt>
      <trkpt lat="46.52194" lon="5.72467">
        <ele>453</ele>
        <time>2021-09-19T10:18:22Z</time>
      </trkpt>
      <trkpt lat="46.52203" lon="5.72422">
        <ele>451</ele>
        <time>2021-09-19T10:18:29Z</time>
      </trkpt>
      <trkpt lat="46.52221" lon="5.72387">
        <ele>452</ele>
        <time>2021-09-19T10:18:36Z</time>
      </trkpt>
      <trkpt lat="46.52224" lon="5.72364">
        <ele>450</ele>
        <time>2021-09-19T10:18:40Z</time>
      </trkpt>
      <trkpt lat="46.5222" lon="5.72351">
        <ele>448</ele>
        <time>2021-09-19T10:18:42Z</time>
      </trkpt>
      <trkpt lat="46.52211" lon="5.72346">
        <ele>446</ele>
        <time>2021-09-19T10:18:44Z</time>
      </trkpt>
      <trkpt lat="46.52203" lon="5.72345">
        <ele>445</ele>
        <time>2021-09-19T10:18:46Z</time>
      </trkpt>
      <trkpt lat="46.52179" lon="5.7235">
        <ele>443</ele>
        <time>2021-09-19T10:18:52Z</time>
      </trkpt>
      <trkpt lat="46.52162" lon="5.7235">
        <ele>442</ele>
        <time>2021-09-19T10:18:56Z</time>
      </trkpt>
      <trkpt lat="46.52155" lon="5.72346">
        <ele>442</ele>
        <time>2021-09-19T10:18:58Z</time>
      </trkpt>
      <trkpt lat="46.52153" lon="5.72338">
        <ele>441</ele>
        <time>2021-09-19T10:18:59Z</time>
      </trkpt>
      <trkpt lat="46.52157" lon="5.7233">
        <ele>441</ele>
        <time>2021-09-19T10:19:01Z</time>
      </trkpt>
      <trkpt lat="46.52171" lon="5.72327">
        <ele>441</ele>
        <time>2021-09-19T10:19:04Z</time>
      </trkpt>
      <trkpt lat="46.52177" lon="5.72324">
        <ele>441</ele>
        <time>2021-09-19T10:19:05Z</time>
      </trkpt>
      <trkpt lat="46.52183" lon="5.72317">
        <ele>442</ele>
        <time>2021-09-19T10:19:07Z</time>
      </trkpt>
      <trkpt lat="46.5219" lon="5.72264">
        <ele>439</ele>
        <time>2021-09-19T10:19:16Z</time>
      </trkpt>
      <trkpt lat="46.52201" lon="5.72243">
        <ele>439</ele>
        <time>2021-09-19T10:19:20Z</time>
      </trkpt>
      <trkpt lat="46.52205" lon="5.72241">
        <ele>439</ele>
        <time>2021-09-19T10:19:21Z</time>
      </trkpt>
      <trkpt lat="46.52214" lon="5.72243">
        <ele>439</ele>
        <time>2021-09-19T10:19:23Z</time>
      </trkpt>
      <trkpt lat="46.52225" lon="5.72227">
        <ele>439</ele>
        <time>2021-09-19T10:19:27Z</time>
      </trkpt>
      <trkpt lat="46.52212" lon="5.72237">
        <ele>439</ele>
        <time>2021-09-19T10:19:30Z</time>
      </trkpt>
      <trkpt lat="46.52211" lon="5.7223">
        <ele>439</ele>
        <time>2021-09-19T10:19:31Z</time>
      </trkpt>
      <trkpt lat="46.52214" lon="5.72237">
        <ele>439</ele>
        <time>2021-09-19T10:19:33Z</time>
      </trkpt>
      <trkpt lat="46.52224" lon="5.72234">
        <ele>440</ele>
        <time>2021-09-19T10:19:35Z</time>
      </trkpt>
      <trkpt lat="46.52226" lon="5.72212">
        <ele>439</ele>
        <time>2021-09-19T10:19:39Z</time>
      </trkpt>
      <trkpt lat="46.52224" lon="5.72203">
        <ele>439</ele>
        <time>2021-09-19T10:19:40Z</time>
      </trkpt>
      <trkpt lat="46.52226" lon="5.72194">
        <ele>439</ele>
        <time>2021-09-19T10:19:42Z</time>
      </trkpt>
      <trkpt lat="46.52242" lon="5.72177">
        <ele>438</ele>
        <time>2021-09-19T10:19:46Z</time>
      </trkpt>
      <trkpt lat="46.52262" lon="5.72134">
        <ele>438</ele>
        <time>2021-09-19T10:19:55Z</time>
      </trkpt>
      <trkpt lat="46.52267" lon="5.72118">
        <ele>439</ele>
        <time>2021-09-19T10:19:58Z</time>
      </trkpt>
      <trkpt lat="46.52276" lon="5.72066">
        <ele>440</ele>
        <time>2021-09-19T10:20:06Z</time>
      </trkpt>
      <trkpt lat="46.52285" lon="5.72045">
        <ele>442</ele>
        <time>2021-09-19T10:20:10Z</time>
      </trkpt>
      <trkpt lat="46.52285" lon="5.72021">
        <ele>443</ele>
        <time>2021-09-19T10:20:14Z</time>
      </trkpt>
      <trkpt lat="46.52274" lon="5.71995">
        <ele>443</ele>
        <time>2021-09-19T10:20:19Z</time>
      </trkpt>
      <trkpt lat="46.52276" lon="5.71978">
        <ele>444</ele>
        <time>2021-09-19T10:20:22Z</time>
      </trkpt>
      <trkpt lat="46.52296" lon="5.71931">
        <ele>448</ele>
        <time>2021-09-19T10:20:31Z</time>
      </trkpt>
      <trkpt lat="46.52306" lon="5.71897">
        <ele>450</ele>
        <time>2021-09-19T10:20:37Z</time>
      </trkpt>
      <trkpt lat="46.52337" lon="5.71854">
        <ele>447</ele>
        <time>2021-09-19T10:20:47Z</time>
      </trkpt>
      <trkpt lat="46.52343" lon="5.71841">
        <ele>447</ele>
        <time>2021-09-19T10:20:49Z</time>
      </trkpt>
      <trkpt lat="46.52376" lon="5.71792">
        <ele>452</ele>
        <time>2021-09-19T10:21:00Z</time>
      </trkpt>
      <trkpt lat="46.52379" lon="5.71778">
        <ele>452</ele>
        <time>2021-09-19T10:21:02Z</time>
      </trkpt>
      <trkpt lat="46.52391" lon="5.7175">
        <ele>451</ele>
        <time>2021-09-19T10:21:08Z</time>
      </trkpt>
      <trkpt lat="46.52391" lon="5.71734">
        <ele>452</ele>
        <time>2021-09-19T10:21:10Z</time>
      </trkpt>
      <trkpt lat="46.52396" lon="5.71719">
        <ele>452</ele>
        <time>2021-09-19T10:21:13Z</time>
      </trkpt>
      <trkpt lat="46.52425" lon="5.71685">
        <ele>447</ele>
        <time>2021-09-19T10:21:22Z</time>
      </trkpt>
      <trkpt lat="46.52447" lon="5.71641">
        <ele>451</ele>
        <time>2021-09-19T10:21:30Z</time>
      </trkpt>
      <trkpt lat="46.52453" lon="5.71593">
        <ele>454</ele>
        <time>2021-09-19T10:21:38Z</time>
      </trkpt>
      <trkpt lat="46.52453" lon="5.71585">
        <ele>454</ele>
        <time>2021-09-19T10:21:40Z</time>
      </trkpt>
      <trkpt lat="46.52448" lon="5.71572">
        <ele>455</ele>
        <time>2021-09-19T10:21:42Z</time>
      </trkpt>
      <trkpt lat="46.52446" lon="5.7158">
        <ele>455</ele>
        <time>2021-09-19T10:21:43Z</time>
      </trkpt>
      <trkpt lat="46.52451" lon="5.7159">
        <ele>454</ele>
        <time>2021-09-19T10:21:45Z</time>
      </trkpt>
      <trkpt lat="46.5245" lon="5.71611">
        <ele>453</ele>
        <time>2021-09-19T10:21:49Z</time>
      </trkpt>
      <trkpt lat="46.52456" lon="5.71646">
        <ele>451</ele>
        <time>2021-09-19T10:21:54Z</time>
      </trkpt>
      <trkpt lat="46.52454" lon="5.71653">
        <ele>451</ele>
        <time>2021-09-19T10:21:56Z</time>
      </trkpt>
      <trkpt lat="46.52438" lon="5.71682">
        <ele>449</ele>
        <time>2021-09-19T10:22:02Z</time>
      </trkpt>
      <trkpt lat="46.5242" lon="5.71699">
        <ele>447</ele>
        <time>2021-09-19T10:22:07Z</time>
      </trkpt>
      <trkpt lat="46.52403" lon="5.71721">
        <ele>450</ele>
        <time>2021-09-19T10:22:12Z</time>
      </trkpt>
      <trkpt lat="46.52391" lon="5.71753">
        <ele>451</ele>
        <time>2021-09-19T10:22:18Z</time>
      </trkpt>
      <trkpt lat="46.52381" lon="5.71771">
        <ele>452</ele>
        <time>2021-09-19T10:22:22Z</time>
      </trkpt>
      <trkpt lat="46.52371" lon="5.71805">
        <ele>451</ele>
        <time>2021-09-19T10:22:27Z</time>
      </trkpt>
      <trkpt lat="46.52353" lon="5.71844">
        <ele>448</ele>
        <time>2021-09-19T10:22:35Z</time>
      </trkpt>
      <trkpt lat="46.5235" lon="5.71848">
        <ele>448</ele>
        <time>2021-09-19T10:22:36Z</time>
      </trkpt>
      <trkpt lat="46.5234" lon="5.71853">
        <ele>447</ele>
        <time>2021-09-19T10:22:38Z</time>
      </trkpt>
      <trkpt lat="46.52318" lon="5.71885">
        <ele>449</ele>
        <time>2021-09-19T10:22:46Z</time>
      </trkpt>
      <trkpt lat="46.52309" lon="5.71912">
        <ele>449</ele>
        <time>2021-09-19T10:22:51Z</time>
      </trkpt>
      <trkpt lat="46.52282" lon="5.71956">
        <ele>446</ele>
        <time>2021-09-19T10:23:00Z</time>
      </trkpt>
      <trkpt lat="46.52279" lon="5.7198">
        <ele>444</ele>
        <time>2021-09-19T10:23:04Z</time>
      </trkpt>
      <trkpt lat="46.52292" lon="5.72015">
        <ele>444</ele>
        <time>2021-09-19T10:23:10Z</time>
      </trkpt>
      <trkpt lat="46.5228" lon="5.72056">
        <ele>441</ele>
        <time>2021-09-19T10:23:17Z</time>
      </trkpt>
      <trkpt lat="46.52279" lon="5.72076">
        <ele>440</ele>
        <time>2021-09-19T10:23:21Z</time>
      </trkpt>
      <trkpt lat="46.52272" lon="5.72111">
        <ele>439</ele>
        <time>2021-09-19T10:23:27Z</time>
      </trkpt>
      <trkpt lat="46.52254" lon="5.7216">
        <ele>437</ele>
        <time>2021-09-19T10:23:35Z</time>
      </trkpt>
      <trkpt lat="46.52242" lon="5.72178">
        <ele>438</ele>
        <time>2021-09-19T10:23:40Z</time>
      </trkpt>
      <trkpt lat="46.52232" lon="5.72183">
        <ele>438</ele>
        <time>2021-09-19T10:23:42Z</time>
      </trkpt>
      <trkpt lat="46.52221" lon="5.72195">
        <ele>439</ele>
        <time>2021-09-19T10:23:45Z</time>
      </trkpt>
      <trkpt lat="46.5219" lon="5.72249">
        <ele>438</ele>
        <time>2021-09-19T10:23:56Z</time>
      </trkpt>
      <trkpt lat="46.52187" lon="5.72264">
        <ele>439</ele>
        <time>2021-09-19T10:23:59Z</time>
      </trkpt>
      <trkpt lat="46.52187" lon="5.72306">
        <ele>441</ele>
        <time>2021-09-19T10:24:06Z</time>
      </trkpt>
      <trkpt lat="46.52182" lon="5.72322">
        <ele>442</ele>
        <time>2021-09-19T10:24:09Z</time>
      </trkpt>
      <trkpt lat="46.52174" lon="5.72331">
        <ele>442</ele>
        <time>2021-09-19T10:24:11Z</time>
      </trkpt>
      <trkpt lat="46.52156" lon="5.72334">
        <ele>441</ele>
        <time>2021-09-19T10:24:15Z</time>
      </trkpt>
      <trkpt lat="46.52152" lon="5.72339">
        <ele>442</ele>
        <time>2021-09-19T10:24:16Z</time>
      </trkpt>
      <trkpt lat="46.52152" lon="5.72346">
        <ele>442</ele>
        <time>2021-09-19T10:24:18Z</time>
      </trkpt>
      <trkpt lat="46.52163" lon="5.72345">
        <ele>442</ele>
        <time>2021-09-19T10:24:20Z</time>
      </trkpt>
      <trkpt lat="46.52168" lon="5.72347">
        <ele>442</ele>
        <time>2021-09-19T10:24:21Z</time>
      </trkpt>
      <trkpt lat="46.5219" lon="5.72336">
        <ele>443</ele>
        <time>2021-09-19T10:24:27Z</time>
      </trkpt>
      <trkpt lat="46.52202" lon="5.72334">
        <ele>444</ele>
        <time>2021-09-19T10:24:30Z</time>
      </trkpt>
      <trkpt lat="46.52218" lon="5.72345">
        <ele>447</ele>
        <time>2021-09-19T10:24:34Z</time>
      </trkpt>
      <trkpt lat="46.5222" lon="5.72354">
        <ele>448</ele>
        <time>2021-09-19T10:24:35Z</time>
      </trkpt>
      <trkpt lat="46.52217" lon="5.72385">
        <ele>451</ele>
        <time>2021-09-19T10:24:40Z</time>
      </trkpt>
      <trkpt lat="46.52197" lon="5.72439">
        <ele>452</ele>
        <time>2021-09-19T10:24:50Z</time>
      </trkpt>
      <trkpt lat="46.52193" lon="5.72462">
        <ele>452</ele>
        <time>2021-09-19T10:24:54Z</time>
      </trkpt>
      <trkpt lat="46.52188" lon="5.7259">
        <ele>461</ele>
        <time>2021-09-19T10:25:15Z</time>
      </trkpt>
      <trkpt lat="46.52192" lon="5.72615">
        <ele>462</ele>
        <time>2021-09-19T10:25:19Z</time>
      </trkpt>
      <trkpt lat="46.52216" lon="5.72655">
        <ele>465</ele>
        <time>2021-09-19T10:25:27Z</time>
      </trkpt>
      <trkpt lat="46.52226" lon="5.72693">
        <ele>466</ele>
        <time>2021-09-19T10:25:34Z</time>
      </trkpt>
      <trkpt lat="46.52242" lon="5.72728">
        <ele>467</ele>
        <time>2021-09-19T10:25:40Z</time>
      </trkpt>
      <trkpt lat="46.52269" lon="5.72745">
        <ele>470</ele>
        <time>2021-09-19T10:25:47Z</time>
      </trkpt>
      <trkpt lat="46.52301" lon="5.72759">
        <ele>474</ele>
        <time>2021-09-19T10:25:55Z</time>
      </trkpt>
      <trkpt lat="46.52335" lon="5.72782">
        <ele>476</ele>
        <time>2021-09-19T10:26:04Z</time>
      </trkpt>
      <trkpt lat="46.52356" lon="5.72807">
        <ele>477</ele>
        <time>2021-09-19T10:26:10Z</time>
      </trkpt>
      <trkpt lat="46.52383" lon="5.72826">
        <ele>479</ele>
        <time>2021-09-19T10:26:17Z</time>
      </trkpt>
      <trkpt lat="46.52419" lon="5.72871">
        <ele>483</ele>
        <time>2021-09-19T10:26:28Z</time>
      </trkpt>
      <trkpt lat="46.52433" lon="5.72884">
        <ele>484</ele>
        <time>2021-09-19T10:26:32Z</time>
      </trkpt>
      <trkpt lat="46.52449" lon="5.72886">
        <ele>485</ele>
        <time>2021-09-19T10:26:36Z</time>
      </trkpt>
      <trkpt lat="46.52472" lon="5.72908">
        <ele>486</ele>
        <time>2021-09-19T10:26:42Z</time>
      </trkpt>
      <trkpt lat="46.52512" lon="5.72902">
        <ele>489</ele>
        <time>2021-09-19T10:26:52Z</time>
      </trkpt>
      <trkpt lat="46.52542" lon="5.72905">
        <ele>492</ele>
        <time>2021-09-19T10:26:59Z</time>
      </trkpt>
      <trkpt lat="46.52554" lon="5.7291">
        <ele>492</ele>
        <time>2021-09-19T10:27:02Z</time>
      </trkpt>
      <trkpt lat="46.52562" lon="5.72917">
        <ele>492</ele>
        <time>2021-09-19T10:27:04Z</time>
      </trkpt>
      <trkpt lat="46.52567" lon="5.7293">
        <ele>494</ele>
        <time>2021-09-19T10:27:06Z</time>
      </trkpt>
      <trkpt lat="46.52566" lon="5.72947">
        <ele>495</ele>
        <time>2021-09-19T10:27:09Z</time>
      </trkpt>
      <trkpt lat="46.52562" lon="5.72963">
        <ele>496</ele>
        <time>2021-09-19T10:27:12Z</time>
      </trkpt>
      <trkpt lat="46.52551" lon="5.72994">
        <ele>496</ele>
        <time>2021-09-19T10:27:17Z</time>
      </trkpt>
      <trkpt lat="46.52521" lon="5.73057">
        <ele>497</ele>
        <time>2021-09-19T10:27:30Z</time>
      </trkpt>
      <trkpt lat="46.52502" lon="5.7311">
        <ele>499</ele>
        <time>2021-09-19T10:27:39Z</time>
      </trkpt>
      <trkpt lat="46.52494" lon="5.73125">
        <ele>500</ele>
        <time>2021-09-19T10:27:42Z</time>
      </trkpt>
      <trkpt lat="46.52488" lon="5.73141">
        <ele>502</ele>
        <time>2021-09-19T10:27:45Z</time>
      </trkpt>
      <trkpt lat="46.52481" lon="5.73175">
        <ele>506</ele>
        <time>2021-09-19T10:27:51Z</time>
      </trkpt>
      <trkpt lat="46.52449" lon="5.73258">
        <ele>508</ele>
        <time>2021-09-19T10:28:06Z</time>
      </trkpt>
      <trkpt lat="46.52448" lon="5.73279">
        <ele>508</ele>
        <time>2021-09-19T10:28:10Z</time>
      </trkpt>
      <trkpt lat="46.52456" lon="5.73341">
        <ele>513</ele>
        <time>2021-09-19T10:28:20Z</time>
      </trkpt>
      <trkpt lat="46.52443" lon="5.73381">
        <ele>511</ele>
        <time>2021-09-19T10:28:27Z</time>
      </trkpt>
      <trkpt lat="46.52448" lon="5.73379">
        <ele>512</ele>
        <time>2021-09-19T10:28:28Z</time>
      </trkpt>
      <trkpt lat="46.52454" lon="5.73356">
        <ele>513</ele>
        <time>2021-09-19T10:28:32Z</time>
      </trkpt>
      <trkpt lat="46.52451" lon="5.73351">
        <ele>512</ele>
        <time>2021-09-19T10:28:33Z</time>
      </trkpt>
      <trkpt lat="46.52445" lon="5.73321">
        <ele>508</ele>
        <time>2021-09-19T10:28:38Z</time>
      </trkpt>
      <trkpt lat="46.52446" lon="5.73297">
        <ele>508</ele>
        <time>2021-09-19T10:28:42Z</time>
      </trkpt>
      <trkpt lat="46.5245" lon="5.73283">
        <ele>509</ele>
        <time>2021-09-19T10:28:44Z</time>
      </trkpt>
      <trkpt lat="46.52469" lon="5.73249">
        <ele>513</ele>
        <time>2021-09-19T10:28:51Z</time>
      </trkpt>
      <trkpt lat="46.52491" lon="5.73219">
        <ele>515</ele>
        <time>2021-09-19T10:28:59Z</time>
      </trkpt>
      <trkpt lat="46.52531" lon="5.73151">
        <ele>516</ele>
        <time>2021-09-19T10:29:13Z</time>
      </trkpt>
      <trkpt lat="46.52565" lon="5.73114">
        <ele>519</ele>
        <time>2021-09-19T10:29:23Z</time>
      </trkpt>
      <trkpt lat="46.52583" lon="5.73085">
        <ele>518</ele>
        <time>2021-09-19T10:29:29Z</time>
      </trkpt>
      <trkpt lat="46.52605" lon="5.73066">
        <ele>521</ele>
        <time>2021-09-19T10:29:35Z</time>
      </trkpt>
      <trkpt lat="46.52648" lon="5.73017">
        <ele>524</ele>
        <time>2021-09-19T10:29:48Z</time>
      </trkpt>
      <trkpt lat="46.52683" lon="5.72991">
        <ele>528</ele>
        <time>2021-09-19T10:29:57Z</time>
      </trkpt>
      <trkpt lat="46.52695" lon="5.72979">
        <ele>528</ele>
        <time>2021-09-19T10:30:00Z</time>
      </trkpt>
      <trkpt lat="46.5271" lon="5.72974">
        <ele>530</ele>
        <time>2021-09-19T10:30:04Z</time>
      </trkpt>
      <trkpt lat="46.52715" lon="5.72977">
        <ele>532</ele>
        <time>2021-09-19T10:30:05Z</time>
      </trkpt>
      <trkpt lat="46.52725" lon="5.72975">
        <ele>533</ele>
        <time>2021-09-19T10:30:08Z</time>
      </trkpt>
      <trkpt lat="46.52742" lon="5.72977">
        <ele>537</ele>
        <time>2021-09-19T10:30:12Z</time>
      </trkpt>
      <trkpt lat="46.52752" lon="5.72974">
        <ele>539</ele>
        <time>2021-09-19T10:30:14Z</time>
      </trkpt>
      <trkpt lat="46.52784" lon="5.72933">
        <ele>541</ele>
        <time>2021-09-19T10:30:24Z</time>
      </trkpt>
      <trkpt lat="46.52798" lon="5.72923">
        <ele>544</ele>
        <time>2021-09-19T10:30:28Z</time>
      </trkpt>
      <trkpt lat="46.52816" lon="5.72892">
        <ele>547</ele>
        <time>2021-09-19T10:30:34Z</time>
      </trkpt>
      <trkpt lat="46.52832" lon="5.72876">
        <ele>550</ele>
        <time>2021-09-19T10:30:39Z</time>
      </trkpt>
      <trkpt lat="46.52845" lon="5.72868">
        <ele>551</ele>
        <time>2021-09-19T10:30:42Z</time>
      </trkpt>
      <trkpt lat="46.52856" lon="5.72868">
        <ele>552</ele>
        <time>2021-09-19T10:30:45Z</time>
      </trkpt>
      <trkpt lat="46.52872" lon="5.72877">
        <ele>554</ele>
        <time>2021-09-19T10:30:49Z</time>
      </trkpt>
      <trkpt lat="46.52881" lon="5.72885">
        <ele>555</ele>
        <time>2021-09-19T10:30:51Z</time>
      </trkpt>
      <trkpt lat="46.52917" lon="5.72947">
        <ele>559</ele>
        <time>2021-09-19T10:31:04Z</time>
      </trkpt>
      <trkpt lat="46.52953" lon="5.72986">
        <ele>561</ele>
        <time>2021-09-19T10:31:14Z</time>
      </trkpt>
      <trkpt lat="46.52969" lon="5.72997">
        <ele>562</ele>
        <time>2021-09-19T10:31:19Z</time>
      </trkpt>
      <trkpt lat="46.52987" lon="5.73015">
        <ele>563</ele>
        <time>2021-09-19T10:31:24Z</time>
      </trkpt>
      <trkpt lat="46.53016" lon="5.73062">
        <ele>565</ele>
        <time>2021-09-19T10:31:34Z</time>
      </trkpt>
      <trkpt lat="46.53035" lon="5.73087">
        <ele>566</ele>
        <time>2021-09-19T10:31:40Z</time>
      </trkpt>
      <trkpt lat="46.53084" lon="5.73141">
        <ele>568</ele>
        <time>2021-09-19T10:31:54Z</time>
      </trkpt>
      <trkpt lat="46.5309" lon="5.73152">
        <ele>569</ele>
        <time>2021-09-19T10:31:56Z</time>
      </trkpt>
      <trkpt lat="46.53111" lon="5.7317">
        <ele>569</ele>
        <time>2021-09-19T10:32:02Z</time>
      </trkpt>
      <trkpt lat="46.53126" lon="5.73188">
        <ele>569</ele>
        <time>2021-09-19T10:32:07Z</time>
      </trkpt>
      <trkpt lat="46.53153" lon="5.73243">
        <ele>568</ele>
        <time>2021-09-19T10:32:18Z</time>
      </trkpt>
      <trkpt lat="46.53175" lon="5.73274">
        <ele>567</ele>
        <time>2021-09-19T10:32:25Z</time>
      </trkpt>
      <trkpt lat="46.53202" lon="5.73301">
        <ele>567</ele>
        <time>2021-09-19T10:32:32Z</time>
      </trkpt>
      <trkpt lat="46.53225" lon="5.73312">
        <ele>566</ele>
        <time>2021-09-19T10:32:38Z</time>
      </trkpt>
      <trkpt lat="46.53239" lon="5.73325">
        <ele>566</ele>
        <time>2021-09-19T10:32:42Z</time>
      </trkpt>
      <trkpt lat="46.53249" lon="5.73356">
        <ele>565</ele>
        <time>2021-09-19T10:32:47Z</time>
      </trkpt>
      <trkpt lat="46.53249" lon="5.73378">
        <ele>566</ele>
        <time>2021-09-19T10:32:51Z</time>
      </trkpt>
      <trkpt lat="46.53235" lon="5.73431">
        <ele>566</ele>
        <time>2021-09-19T10:33:00Z</time>
      </trkpt>
      <trkpt lat="46.53223" lon="5.73458">
        <ele>566</ele>
        <time>2021-09-19T10:33:05Z</time>
      </trkpt>
      <trkpt lat="46.53214" lon="5.73491">
        <ele>567</ele>
        <time>2021-09-19T10:33:11Z</time>
      </trkpt>
      <trkpt lat="46.53216" lon="5.7351">
        <ele>567</ele>
        <time>2021-09-19T10:33:14Z</time>
      </trkpt>
      <trkpt lat="46.53223" lon="5.73526">
        <ele>568</ele>
        <time>2021-09-19T10:33:17Z</time>
      </trkpt>
      <trkpt lat="46.53228" lon="5.73532">
        <ele>568</ele>
        <time>2021-09-19T10:33:19Z</time>
      </trkpt>
      <trkpt lat="46.53235" lon="5.73535">
        <ele>569</ele>
        <time>2021-09-19T10:33:20Z</time>
      </trkpt>
      <trkpt lat="46.53251" lon="5.73535">
        <ele>569</ele>
        <time>2021-09-19T10:33:24Z</time>
      </trkpt>
      <trkpt lat="46.53288" lon="5.73522">
        <ele>568</ele>
        <time>2021-09-19T10:33:33Z</time>
      </trkpt>
      <trkpt lat="46.53306" lon="5.7352">
        <ele>568</ele>
        <time>2021-09-19T10:33:37Z</time>
      </trkpt>
      <trkpt lat="46.53332" lon="5.73513">
        <ele>568</ele>
        <time>2021-09-19T10:33:43Z</time>
      </trkpt>
      <trkpt lat="46.53341" lon="5.73516">
        <ele>568</ele>
        <time>2021-09-19T10:33:45Z</time>
      </trkpt>
      <trkpt lat="46.53357" lon="5.73536">
        <ele>568</ele>
        <time>2021-09-19T10:33:50Z</time>
      </trkpt>
      <trkpt lat="46.53367" lon="5.73541">
        <ele>568</ele>
        <time>2021-09-19T10:33:53Z</time>
      </trkpt>
      <trkpt lat="46.53373" lon="5.7354">
        <ele>568</ele>
        <time>2021-09-19T10:33:54Z</time>
      </trkpt>
      <trkpt lat="46.53381" lon="5.7353">
        <ele>568</ele>
        <time>2021-09-19T10:33:57Z</time>
      </trkpt>
      <trkpt lat="46.53387" lon="5.735">
        <ele>569</ele>
        <time>2021-09-19T10:34:02Z</time>
      </trkpt>
      <trkpt lat="46.53401" lon="5.73478">
        <ele>569</ele>
        <time>2021-09-19T10:34:07Z</time>
      </trkpt>
      <trkpt lat="46.53407" lon="5.73473">
        <ele>569</ele>
        <time>2021-09-19T10:34:08Z</time>
      </trkpt>
      <trkpt lat="46.53414" lon="5.73471">
        <ele>569</ele>
        <time>2021-09-19T10:34:10Z</time>
      </trkpt>
      <trkpt lat="46.53432" lon="5.73471">
        <ele>569</ele>
        <time>2021-09-19T10:34:14Z</time>
      </trkpt>
      <trkpt lat="46.53478" lon="5.73492">
        <ele>570</ele>
        <time>2021-09-19T10:34:25Z</time>
      </trkpt>
      <trkpt lat="46.53521" lon="5.73507">
        <ele>572</ele>
        <time>2021-09-19T10:34:36Z</time>
      </trkpt>
      <trkpt lat="46.53544" lon="5.73522">
        <ele>574</ele>
        <time>2021-09-19T10:34:42Z</time>
      </trkpt>
      <trkpt lat="46.53573" lon="5.73555">
        <ele>576</ele>
        <time>2021-09-19T10:34:50Z</time>
      </trkpt>
      <trkpt lat="46.53582" lon="5.73561">
        <ele>577</ele>
        <time>2021-09-19T10:34:52Z</time>
      </trkpt>
      <trkpt lat="46.53593" lon="5.7356">
        <ele>577</ele>
        <time>2021-09-19T10:34:55Z</time>
      </trkpt>
      <trkpt lat="46.53602" lon="5.73552">
        <ele>578</ele>
        <time>2021-09-19T10:34:57Z</time>
      </trkpt>
      <trkpt lat="46.53623" lon="5.73544">
        <ele>579</ele>
        <time>2021-09-19T10:35:03Z</time>
      </trkpt>
      <trkpt lat="46.53629" lon="5.73544">
        <ele>579</ele>
        <time>2021-09-19T10:35:04Z</time>
      </trkpt>
      <trkpt lat="46.53702" lon="5.73575">
        <ele>585</ele>
        <time>2021-09-19T10:35:22Z</time>
      </trkpt>
      <trkpt lat="46.53713" lon="5.73584">
        <ele>586</ele>
        <time>2021-09-19T10:35:25Z</time>
      </trkpt>
      <trkpt lat="46.53751" lon="5.73626">
        <ele>589</ele>
        <time>2021-09-19T10:35:36Z</time>
      </trkpt>
      <trkpt lat="46.53831" lon="5.73698">
        <ele>595</ele>
        <time>2021-09-19T10:35:58Z</time>
      </trkpt>
      <trkpt lat="46.53886" lon="5.73702">
        <ele>596</ele>
        <time>2021-09-19T10:36:11Z</time>
      </trkpt>
      <trkpt lat="46.53956" lon="5.73695">
        <ele>595</ele>
        <time>2021-09-19T10:36:27Z</time>
      </trkpt>
      <trkpt lat="46.54009" lon="5.73699">
        <ele>592</ele>
        <time>2021-09-19T10:36:39Z</time>
      </trkpt>
      <trkpt lat="46.54041" lon="5.73697">
        <ele>591</ele>
        <time>2021-09-19T10:36:47Z</time>
      </trkpt>
      <trkpt lat="46.5405" lon="5.73705">
        <ele>590</ele>
        <time>2021-09-19T10:36:49Z</time>
      </trkpt>
      <trkpt lat="46.54074" lon="5.73779">
        <ele>585</ele>
        <time>2021-09-19T10:37:02Z</time>
      </trkpt>
      <trkpt lat="46.54078" lon="5.73798">
        <ele>585</ele>
        <time>2021-09-19T10:37:06Z</time>
      </trkpt>
      <trkpt lat="46.54077" lon="5.73817">
        <ele>584</ele>
        <time>2021-09-19T10:37:09Z</time>
      </trkpt>
      <trkpt lat="46.54041" lon="5.73893">
        <ele>586</ele>
        <time>2021-09-19T10:37:24Z</time>
      </trkpt>
      <trkpt lat="46.54024" lon="5.73959">
        <ele>587</ele>
        <time>2021-09-19T10:37:35Z</time>
      </trkpt>
      <trkpt lat="46.54016" lon="5.74008">
        <ele>588</ele>
        <time>2021-09-19T10:37:43Z</time>
      </trkpt>
      <trkpt lat="46.54016" lon="5.7401">
        <ele>587.8</ele>
      </trkpt>
      <trkpt lat="46.54014" lon="5.74024">
        <ele>588.2</ele>
      </trkpt>
      <trkpt lat="46.54018" lon="5.74024">
        <ele>588.3</ele>
      </trkpt>
      <trkpt lat="46.5402" lon="5.74025">
        <ele>588</ele>
        <time>2021-09-19T10:39:31Z</time>
      </trkpt>
      <trkpt lat="46.54036" lon="5.7402">
        <ele>589</ele>
        <time>2021-09-19T10:39:35Z</time>
      </trkpt>
      <trkpt lat="46.54071" lon="5.74017">
        <ele>589</ele>
        <time>2021-09-19T10:39:43Z</time>
      </trkpt>
      <trkpt lat="46.54106" lon="5.74029">
        <ele>591</ele>
        <time>2021-09-19T10:39:51Z</time>
      </trkpt>
      <trkpt lat="46.54115" lon="5.74039">
        <ele>591</ele>
        <time>2021-09-19T10:39:54Z</time>
      </trkpt>
      <trkpt lat="46.54122" lon="5.74053">
        <ele>592</ele>
        <time>2021-09-19T10:39:57Z</time>
      </trkpt>
      <trkpt lat="46.54125" lon="5.74072">
        <ele>593</ele>
        <time>2021-09-19T10:40:00Z</time>
      </trkpt>
      <trkpt lat="46.54121" lon="5.7418">
        <ele>598</ele>
        <time>2021-09-19T10:40:17Z</time>
      </trkpt>
      <trkpt lat="46.54123" lon="5.74212">
        <ele>599</ele>
        <time>2021-09-19T10:40:22Z</time>
      </trkpt>
      <trkpt lat="46.54137" lon="5.74249">
        <ele>599</ele>
        <time>2021-09-19T10:40:29Z</time>
      </trkpt>
      <trkpt lat="46.54172" lon="5.7432">
        <ele>597</ele>
        <time>2021-09-19T10:40:43Z</time>
      </trkpt>
      <trkpt lat="46.5418" lon="5.74356">
        <ele>597</ele>
        <time>2021-09-19T10:40:49Z</time>
      </trkpt>
      <trkpt lat="46.54173" lon="5.74482">
        <ele>596</ele>
        <time>2021-09-19T10:41:09Z</time>
      </trkpt>
      <trkpt lat="46.54175" lon="5.74604">
        <ele>602</ele>
        <time>2021-09-19T10:41:29Z</time>
      </trkpt>
      <trkpt lat="46.54186" lon="5.74652">
        <ele>603</ele>
        <time>2021-09-19T10:41:37Z</time>
      </trkpt>
      <trkpt lat="46.54189" lon="5.7469">
        <ele>604</ele>
        <time>2021-09-19T10:41:43Z</time>
      </trkpt>
      <trkpt lat="46.54179" lon="5.74771">
        <ele>605</ele>
        <time>2021-09-19T10:41:57Z</time>
      </trkpt>
      <trkpt lat="46.54171" lon="5.74812">
        <ele>604</ele>
        <time>2021-09-19T10:42:03Z</time>
      </trkpt>
      <trkpt lat="46.54173" lon="5.74833">
        <ele>604</ele>
        <time>2021-09-19T10:42:07Z</time>
      </trkpt>
      <trkpt lat="46.54182" lon="5.74849">
        <ele>602</ele>
        <time>2021-09-19T10:42:10Z</time>
      </trkpt>
      <trkpt lat="46.54188" lon="5.74853">
        <ele>601</ele>
        <time>2021-09-19T10:42:12Z</time>
      </trkpt>
      <trkpt lat="46.54195" lon="5.74854">
        <ele>601</ele>
        <time>2021-09-19T10:42:13Z</time>
      </trkpt>
      <trkpt lat="46.54221" lon="5.74853">
        <ele>600</ele>
        <time>2021-09-19T10:42:19Z</time>
      </trkpt>
      <trkpt lat="46.54241" lon="5.74845">
        <ele>600</ele>
        <time>2021-09-19T10:42:24Z</time>
      </trkpt>
      <trkpt lat="46.54288" lon="5.74841">
        <ele>596</ele>
        <time>2021-09-19T10:42:35Z</time>
      </trkpt>
      <trkpt lat="46.54322" lon="5.74823">
        <ele>594</ele>
        <time>2021-09-19T10:42:44Z</time>
      </trkpt>
      <trkpt lat="46.54373" lon="5.74785">
        <ele>593</ele>
        <time>2021-09-19T10:42:57Z</time>
      </trkpt>
      <trkpt lat="46.54391" lon="5.74778">
        <ele>591</ele>
        <time>2021-09-19T10:43:01Z</time>
      </trkpt>
      <trkpt lat="46.54431" lon="5.74771">
        <ele>587</ele>
        <time>2021-09-19T10:43:11Z</time>
      </trkpt>
      <trkpt lat="46.54484" lon="5.74751">
        <ele>583</ele>
        <time>2021-09-19T10:43:24Z</time>
      </trkpt>
      <trkpt lat="46.54563" lon="5.74746">
        <ele>579</ele>
        <time>2021-09-19T10:43:42Z</time>
      </trkpt>
      <trkpt lat="46.54593" lon="5.74751">
        <ele>578</ele>
        <time>2021-09-19T10:43:49Z</time>
      </trkpt>
      <trkpt lat="46.54614" lon="5.74766">
        <ele>578</ele>
        <time>2021-09-19T10:43:55Z</time>
      </trkpt>
      <trkpt lat="46.54638" lon="5.74804">
        <ele>580</ele>
        <time>2021-09-19T10:44:03Z</time>
      </trkpt>
      <trkpt lat="46.54642" lon="5.74814">
        <ele>580</ele>
        <time>2021-09-19T10:44:05Z</time>
      </trkpt>
      <trkpt lat="46.54642" lon="5.74823">
        <ele>581</ele>
        <time>2021-09-19T10:44:06Z</time>
      </trkpt>
      <trkpt lat="46.54638" lon="5.7483">
        <ele>581</ele>
        <time>2021-09-19T10:44:08Z</time>
      </trkpt>
      <trkpt lat="46.54634" lon="5.74847">
        <ele>581</ele>
        <time>2021-09-19T10:44:11Z</time>
      </trkpt>
      <trkpt lat="46.5462" lon="5.74974">
        <ele>583</ele>
        <time>2021-09-19T10:44:31Z</time>
      </trkpt>
      <trkpt lat="46.54612" lon="5.75007">
        <ele>583</ele>
        <time>2021-09-19T10:44:37Z</time>
      </trkpt>
      <trkpt lat="46.5459" lon="5.75051">
        <ele>582</ele>
        <time>2021-09-19T10:44:46Z</time>
      </trkpt>
      <trkpt lat="46.54587" lon="5.75073">
        <ele>582</ele>
        <time>2021-09-19T10:44:49Z</time>
      </trkpt>
      <trkpt lat="46.54585" lon="5.75198">
        <ele>586</ele>
        <time>2021-09-19T10:45:09Z</time>
      </trkpt>
      <trkpt lat="46.54586" lon="5.75206">
        <ele>587</ele>
        <time>2021-09-19T10:45:11Z</time>
      </trkpt>
      <trkpt lat="46.5459" lon="5.7521">
        <ele>587</ele>
        <time>2021-09-19T10:45:12Z</time>
      </trkpt>
      <trkpt lat="46.54601" lon="5.75214">
        <ele>589</ele>
        <time>2021-09-19T10:45:14Z</time>
      </trkpt>
      <trkpt lat="46.54606" lon="5.75227">
        <ele>590</ele>
        <time>2021-09-19T10:45:17Z</time>
      </trkpt>
      <trkpt lat="46.54604" lon="5.75268">
        <ele>592</ele>
        <time>2021-09-19T10:45:23Z</time>
      </trkpt>
      <trkpt lat="46.54591" lon="5.75319">
        <ele>593</ele>
        <time>2021-09-19T10:45:32Z</time>
      </trkpt>
      <trkpt lat="46.54588" lon="5.75342">
        <ele>593</ele>
        <time>2021-09-19T10:45:36Z</time>
      </trkpt>
      <trkpt lat="46.54591" lon="5.75357">
        <ele>594</ele>
        <time>2021-09-19T10:45:38Z</time>
      </trkpt>
      <trkpt lat="46.54597" lon="5.75369">
        <ele>594</ele>
        <time>2021-09-19T10:45:41Z</time>
      </trkpt>
      <trkpt lat="46.54611" lon="5.75388">
        <ele>595</ele>
        <time>2021-09-19T10:45:45Z</time>
      </trkpt>
      <trkpt lat="46.54611" lon="5.75415">
        <ele>595</ele>
        <time>2021-09-19T10:45:50Z</time>
      </trkpt>
      <trkpt lat="46.54585" lon="5.75486">
        <ele>593</ele>
        <time>2021-09-19T10:46:02Z</time>
      </trkpt>
      <trkpt lat="46.54575" lon="5.75501">
        <ele>592</ele>
        <time>2021-09-19T10:46:06Z</time>
      </trkpt>
      <trkpt lat="46.54554" lon="5.75522">
        <ele>590</ele>
        <time>2021-09-19T10:46:12Z</time>
      </trkpt>
      <trkpt lat="46.54551" lon="5.75529">
        <ele>590</ele>
        <time>2021-09-19T10:46:13Z</time>
      </trkpt>
      <trkpt lat="46.54524" lon="5.75628">
        <ele>589</ele>
        <time>2021-09-19T10:46:30Z</time>
      </trkpt>
      <trkpt lat="46.54523" lon="5.75645">
        <ele>589</ele>
        <time>2021-09-19T10:46:33Z</time>
      </trkpt>
      <trkpt lat="46.54541" lon="5.7569">
        <ele>590</ele>
        <time>2021-09-19T10:46:41Z</time>
      </trkpt>
      <trkpt lat="46.54557" lon="5.75713">
        <ele>590</ele>
        <time>2021-09-19T10:46:47Z</time>
      </trkpt>
      <trkpt lat="46.54582" lon="5.75742">
        <ele>590</ele>
        <time>2021-09-19T10:46:54Z</time>
      </trkpt>
      <trkpt lat="46.5459" lon="5.75758">
        <ele>591</ele>
        <time>2021-09-19T10:46:57Z</time>
      </trkpt>
      <trkpt lat="46.54597" lon="5.75802">
        <ele>592</ele>
        <time>2021-09-19T10:47:04Z</time>
      </trkpt>
      <trkpt lat="46.54613" lon="5.75865">
        <ele>594</ele>
        <time>2021-09-19T10:47:15Z</time>
      </trkpt>
      <trkpt lat="46.54617" lon="5.759">
        <ele>595</ele>
        <time>2021-09-19T10:47:21Z</time>
      </trkpt>
      <trkpt lat="46.54618" lon="5.75967">
        <ele>597</ele>
        <time>2021-09-19T10:47:32Z</time>
      </trkpt>
      <trkpt lat="46.54628" lon="5.75981">
        <ele>598</ele>
        <time>2021-09-19T10:47:35Z</time>
      </trkpt>
      <trkpt lat="46.54642" lon="5.75987">
        <ele>599</ele>
        <time>2021-09-19T10:47:38Z</time>
      </trkpt>
      <trkpt lat="46.54647" lon="5.75988">
        <ele>599</ele>
        <time>2021-09-19T10:47:39Z</time>
      </trkpt>
      <trkpt lat="46.54659" lon="5.75982">
        <ele>600</ele>
        <time>2021-09-19T10:47:42Z</time>
      </trkpt>
      <trkpt lat="46.5467" lon="5.75971">
        <ele>600</ele>
        <time>2021-09-19T10:47:46Z</time>
      </trkpt>
      <trkpt lat="46.54701" lon="5.75921">
        <ele>600</ele>
        <time>2021-09-19T10:47:56Z</time>
      </trkpt>
      <trkpt lat="46.54725" lon="5.75876">
        <ele>599</ele>
        <time>2021-09-19T10:48:06Z</time>
      </trkpt>
      <trkpt lat="46.54759" lon="5.75829">
        <ele>598</ele>
        <time>2021-09-19T10:48:16Z</time>
      </trkpt>
      <trkpt lat="46.54776" lon="5.75801">
        <ele>597</ele>
        <time>2021-09-19T10:48:22Z</time>
      </trkpt>
      <trkpt lat="46.54807" lon="5.75764">
        <ele>596</ele>
        <time>2021-09-19T10:48:32Z</time>
      </trkpt>
      <trkpt lat="46.54818" lon="5.75754">
        <ele>595</ele>
        <time>2021-09-19T10:48:35Z</time>
      </trkpt>
      <trkpt lat="46.54823" lon="5.75752">
        <ele>595</ele>
        <time>2021-09-19T10:48:36Z</time>
      </trkpt>
      <trkpt lat="46.54833" lon="5.75753">
        <ele>594</ele>
        <time>2021-09-19T10:48:38Z</time>
      </trkpt>
      <trkpt lat="46.54842" lon="5.75761">
        <ele>592</ele>
        <time>2021-09-19T10:48:41Z</time>
      </trkpt>
      <trkpt lat="46.54851" lon="5.75775">
        <ele>591</ele>
        <time>2021-09-19T10:48:44Z</time>
      </trkpt>
      <trkpt lat="46.54852" lon="5.75785">
        <ele>591</ele>
        <time>2021-09-19T10:48:46Z</time>
      </trkpt>
      <trkpt lat="46.5485" lon="5.75792">
        <ele>591</ele>
        <time>2021-09-19T10:48:47Z</time>
      </trkpt>
      <trkpt lat="46.54852" lon="5.75808">
        <ele>591</ele>
        <time>2021-09-19T10:48:49Z</time>
      </trkpt>
      <trkpt lat="46.5486" lon="5.75833">
        <ele>589</ele>
        <time>2021-09-19T10:48:54Z</time>
      </trkpt>
      <trkpt lat="46.54862" lon="5.75872">
        <ele>588</ele>
        <time>2021-09-19T10:49:00Z</time>
      </trkpt>
      <trkpt lat="46.5487" lon="5.75903">
        <ele>586</ele>
        <time>2021-09-19T10:49:05Z</time>
      </trkpt>
      <trkpt lat="46.54875" lon="5.75939">
        <ele>585</ele>
        <time>2021-09-19T10:49:11Z</time>
      </trkpt>
      <trkpt lat="46.54878" lon="5.75968">
        <ele>585</ele>
        <time>2021-09-19T10:49:16Z</time>
      </trkpt>
      <trkpt lat="46.54875" lon="5.76002">
        <ele>587</ele>
        <time>2021-09-19T10:49:22Z</time>
      </trkpt>
      <trkpt lat="46.5488" lon="5.76018">
        <ele>587</ele>
        <time>2021-09-19T10:49:24Z</time>
      </trkpt>
      <trkpt lat="46.54881" lon="5.76034">
        <ele>589</ele>
        <time>2021-09-19T10:49:27Z</time>
      </trkpt>
      <trkpt lat="46.54892" lon="5.76049">
        <ele>588</ele>
        <time>2021-09-19T10:49:31Z</time>
      </trkpt>
      <trkpt lat="46.549" lon="5.76071">
        <ele>589</ele>
        <time>2021-09-19T10:49:34Z</time>
      </trkpt>
      <trkpt lat="46.54911" lon="5.76083">
        <ele>590</ele>
        <time>2021-09-19T10:49:38Z</time>
      </trkpt>
      <trkpt lat="46.54905" lon="5.76094">
        <ele>592</ele>
        <time>2021-09-19T10:49:40Z</time>
      </trkpt>
      <trkpt lat="46.54887" lon="5.76109">
        <ele>595</ele>
        <time>2021-09-19T10:49:45Z</time>
      </trkpt>
      <trkpt lat="46.54876" lon="5.76134">
        <ele>598</ele>
        <time>2021-09-19T10:49:50Z</time>
      </trkpt>
      <trkpt lat="46.54875" lon="5.76149">
        <ele>600</ele>
        <time>2021-09-19T10:49:52Z</time>
      </trkpt>
      <trkpt lat="46.54882" lon="5.76186">
        <ele>603</ele>
        <time>2021-09-19T10:49:58Z</time>
      </trkpt>
      <trkpt lat="46.54881" lon="5.76211">
        <ele>605</ele>
        <time>2021-09-19T10:50:02Z</time>
      </trkpt>
      <trkpt lat="46.54872" lon="5.76263">
        <ele>608</ele>
        <time>2021-09-19T10:50:11Z</time>
      </trkpt>
      <trkpt lat="46.54871" lon="5.76314">
        <ele>611</ele>
        <time>2021-09-19T10:50:19Z</time>
      </trkpt>
      <trkpt lat="46.54856" lon="5.7636">
        <ele>612</ele>
        <time>2021-09-19T10:50:27Z</time>
      </trkpt>
      <trkpt lat="46.54849" lon="5.76421">
        <ele>614</ele>
        <time>2021-09-19T10:50:37Z</time>
      </trkpt>
      <trkpt lat="46.54841" lon="5.7644">
        <ele>615</ele>
        <time>2021-09-19T10:50:41Z</time>
      </trkpt>
      <trkpt lat="46.54813" lon="5.76481">
        <ele>617</ele>
        <time>2021-09-19T10:50:50Z</time>
      </trkpt>
      <trkpt lat="46.54802" lon="5.76508">
        <ele>618</ele>
        <time>2021-09-19T10:50:55Z</time>
      </trkpt>
      <trkpt lat="46.54798" lon="5.76539">
        <ele>620</ele>
        <time>2021-09-19T10:51:00Z</time>
      </trkpt>
      <trkpt lat="46.548" lon="5.76575">
        <ele>622</ele>
        <time>2021-09-19T10:51:06Z</time>
      </trkpt>
      <trkpt lat="46.54812" lon="5.76614">
        <ele>626</ele>
        <time>2021-09-19T10:51:13Z</time>
      </trkpt>
      <trkpt lat="46.54828" lon="5.76646">
        <ele>630</ele>
        <time>2021-09-19T10:51:19Z</time>
      </trkpt>
      <trkpt lat="46.54834" lon="5.76669">
        <ele>632</ele>
        <time>2021-09-19T10:51:23Z</time>
      </trkpt>
      <trkpt lat="46.54855" lon="5.76714">
        <ele>635</ele>
        <time>2021-09-19T10:51:32Z</time>
      </trkpt>
      <trkpt lat="46.54871" lon="5.76735">
        <ele>636</ele>
        <time>2021-09-19T10:51:37Z</time>
      </trkpt>
      <trkpt lat="46.54892" lon="5.76754">
        <ele>637</ele>
        <time>2021-09-19T10:51:43Z</time>
      </trkpt>
      <trkpt lat="46.5492" lon="5.76793">
        <ele>640</ele>
        <time>2021-09-19T10:51:52Z</time>
      </trkpt>
      <trkpt lat="46.54951" lon="5.76813">
        <ele>640</ele>
        <time>2021-09-19T10:52:00Z</time>
      </trkpt>
      <trkpt lat="46.54964" lon="5.76824">
        <ele>640</ele>
        <time>2021-09-19T10:52:03Z</time>
      </trkpt>
      <trkpt lat="46.54985" lon="5.76848">
        <ele>639</ele>
        <time>2021-09-19T10:52:09Z</time>
      </trkpt>
      <trkpt lat="46.54994" lon="5.76861">
        <ele>638</ele>
        <time>2021-09-19T10:52:12Z</time>
      </trkpt>
      <trkpt lat="46.5501" lon="5.76895">
        <ele>636</ele>
        <time>2021-09-19T10:52:19Z</time>
      </trkpt>
      <trkpt lat="46.55028" lon="5.76919">
        <ele>633</ele>
        <time>2021-09-19T10:52:25Z</time>
      </trkpt>
      <trkpt lat="46.55053" lon="5.76938">
        <ele>631</ele>
        <time>2021-09-19T10:52:31Z</time>
      </trkpt>
      <trkpt lat="46.55068" lon="5.76946">
        <ele>629</ele>
        <time>2021-09-19T10:52:35Z</time>
      </trkpt>
      <trkpt lat="46.55082" lon="5.76947">
        <ele>628</ele>
        <time>2021-09-19T10:52:38Z</time>
      </trkpt>
      <trkpt lat="46.55117" lon="5.76937">
        <ele>628</ele>
        <time>2021-09-19T10:52:47Z</time>
      </trkpt>
      <trkpt lat="46.55141" lon="5.76935">
        <ele>629</ele>
        <time>2021-09-19T10:52:52Z</time>
      </trkpt>
      <trkpt lat="46.55185" lon="5.7694">
        <ele>629</ele>
        <time>2021-09-19T10:53:02Z</time>
      </trkpt>
      <trkpt lat="46.5521" lon="5.76949">
        <ele>630</ele>
        <time>2021-09-19T10:53:08Z</time>
      </trkpt>
      <trkpt lat="46.55224" lon="5.76942">
        <ele>630</ele>
        <time>2021-09-19T10:53:12Z</time>
      </trkpt>
      <trkpt lat="46.55236" lon="5.76925">
        <ele>630</ele>
        <time>2021-09-19T10:53:16Z</time>
      </trkpt>
      <trkpt lat="46.55246" lon="5.76919">
        <ele>630</ele>
        <time>2021-09-19T10:53:18Z</time>
      </trkpt>
      <trkpt lat="46.55256" lon="5.76908">
        <ele>629</ele>
        <time>2021-09-19T10:53:21Z</time>
      </trkpt>
      <trkpt lat="46.55272" lon="5.76905">
        <ele>628</ele>
        <time>2021-09-19T10:53:25Z</time>
      </trkpt>
      <trkpt lat="46.55284" lon="5.76909">
        <ele>628</ele>
        <time>2021-09-19T10:53:28Z</time>
      </trkpt>
      <trkpt lat="46.55299" lon="5.7692">
        <ele>628</ele>
        <time>2021-09-19T10:53:32Z</time>
      </trkpt>
      <trkpt lat="46.55312" lon="5.76939">
        <ele>628</ele>
        <time>2021-09-19T10:53:36Z</time>
      </trkpt>
      <trkpt lat="46.55317" lon="5.7696">
        <ele>629</ele>
        <time>2021-09-19T10:53:40Z</time>
      </trkpt>
      <trkpt lat="46.55323" lon="5.76972">
        <ele>629</ele>
        <time>2021-09-19T10:53:42Z</time>
      </trkpt>
      <trkpt lat="46.55332" lon="5.76971">
        <ele>629</ele>
        <time>2021-09-19T10:53:44Z</time>
      </trkpt>
      <trkpt lat="46.55362" lon="5.76941">
        <ele>628</ele>
        <time>2021-09-19T10:53:53Z</time>
      </trkpt>
      <trkpt lat="46.55383" lon="5.76883">
        <ele>625</ele>
        <time>2021-09-19T10:54:03Z</time>
      </trkpt>
      <trkpt lat="46.55397" lon="5.7683">
        <ele>621</ele>
        <time>2021-09-19T10:54:12Z</time>
      </trkpt>
      <trkpt lat="46.55414" lon="5.76799">
        <ele>619</ele>
        <time>2021-09-19T10:54:19Z</time>
      </trkpt>
      <trkpt lat="46.55433" lon="5.76774">
        <ele>619</ele>
        <time>2021-09-19T10:54:25Z</time>
      </trkpt>
      <trkpt lat="46.55465" lon="5.76748">
        <ele>621</ele>
        <time>2021-09-19T10:54:33Z</time>
      </trkpt>
      <trkpt lat="46.55553" lon="5.76698">
        <ele>627</ele>
        <time>2021-09-19T10:54:55Z</time>
      </trkpt>
      <trkpt lat="46.55644" lon="5.76631">
        <ele>637</ele>
        <time>2021-09-19T10:55:19Z</time>
      </trkpt>
      <trkpt lat="46.55668" lon="5.76621">
        <ele>640</ele>
        <time>2021-09-19T10:55:25Z</time>
      </trkpt>
      <trkpt lat="46.55682" lon="5.76619">
        <ele>641</ele>
        <time>2021-09-19T10:55:28Z</time>
      </trkpt>
      <trkpt lat="46.5573" lon="5.76621">
        <ele>641</ele>
        <time>2021-09-19T10:55:39Z</time>
      </trkpt>
      <trkpt lat="46.55748" lon="5.76615">
        <ele>641</ele>
        <time>2021-09-19T10:55:44Z</time>
      </trkpt>
      <trkpt lat="46.55785" lon="5.7663">
        <ele>639</ele>
        <time>2021-09-19T10:55:53Z</time>
      </trkpt>
      <trkpt lat="46.55808" lon="5.76649">
        <ele>639</ele>
        <time>2021-09-19T10:55:59Z</time>
      </trkpt>
      <trkpt lat="46.55835" lon="5.76665">
        <ele>641</ele>
        <time>2021-09-19T10:56:06Z</time>
      </trkpt>
      <trkpt lat="46.5585" lon="5.76664">
        <ele>641</ele>
        <time>2021-09-19T10:56:09Z</time>
      </trkpt>
      <trkpt lat="46.55878" lon="5.76651">
        <ele>641</ele>
        <time>2021-09-19T10:56:16Z</time>
      </trkpt>
      <trkpt lat="46.55896" lon="5.76631">
        <ele>640</ele>
        <time>2021-09-19T10:56:21Z</time>
      </trkpt>
      <trkpt lat="46.55904" lon="5.7662">
        <ele>640</ele>
        <time>2021-09-19T10:56:24Z</time>
      </trkpt>
      <trkpt lat="46.5591" lon="5.76605">
        <ele>639</ele>
        <time>2021-09-19T10:56:27Z</time>
      </trkpt>
      <trkpt lat="46.55914" lon="5.76548">
        <ele>632</ele>
        <time>2021-09-19T10:56:36Z</time>
      </trkpt>
      <trkpt lat="46.5593" lon="5.76496">
        <ele>626</ele>
        <time>2021-09-19T10:56:45Z</time>
      </trkpt>
      <trkpt lat="46.5595" lon="5.76398">
        <ele>621</ele>
        <time>2021-09-19T10:57:02Z</time>
      </trkpt>
      <trkpt lat="46.55961" lon="5.76377">
        <ele>622</ele>
        <time>2021-09-19T10:57:06Z</time>
      </trkpt>
      <trkpt lat="46.55981" lon="5.76351">
        <ele>622</ele>
        <time>2021-09-19T10:57:12Z</time>
      </trkpt>
      <trkpt lat="46.55991" lon="5.76344">
        <ele>623</ele>
        <time>2021-09-19T10:57:15Z</time>
      </trkpt>
      <trkpt lat="46.56014" lon="5.76337">
        <ele>623</ele>
        <time>2021-09-19T10:57:20Z</time>
      </trkpt>
      <trkpt lat="46.56023" lon="5.76329">
        <ele>622</ele>
        <time>2021-09-19T10:57:23Z</time>
      </trkpt>
      <trkpt lat="46.56035" lon="5.76313">
        <ele>620</ele>
        <time>2021-09-19T10:57:26Z</time>
      </trkpt>
      <trkpt lat="46.56044" lon="5.76283">
        <ele>617</ele>
        <time>2021-09-19T10:57:32Z</time>
      </trkpt>
      <trkpt lat="46.56046" lon="5.76267">
        <ele>615</ele>
        <time>2021-09-19T10:57:34Z</time>
      </trkpt>
      <trkpt lat="46.56031" lon="5.76241">
        <ele>612</ele>
        <time>2021-09-19T10:57:40Z</time>
      </trkpt>
      <trkpt lat="46.56033" lon="5.76233">
        <ele>611</ele>
        <time>2021-09-19T10:57:41Z</time>
      </trkpt>
      <trkpt lat="46.56038" lon="5.76235">
        <ele>611</ele>
        <time>2021-09-19T10:57:42Z</time>
      </trkpt>
      <trkpt lat="46.56033" lon="5.76229">
        <ele>611</ele>
        <time>2021-09-19T10:57:44Z</time>
      </trkpt>
      <trkpt lat="46.56031" lon="5.76236">
        <ele>611</ele>
        <time>2021-09-19T10:57:45Z</time>
      </trkpt>
      <trkpt lat="46.56033" lon="5.76243">
        <ele>612</ele>
        <time>2021-09-19T10:57:46Z</time>
      </trkpt>
      <trkpt lat="46.56038" lon="5.76244">
        <ele>612</ele>
        <time>2021-09-19T10:57:47Z</time>
      </trkpt>
      <trkpt lat="46.56026" lon="5.7623">
        <ele>611</ele>
        <time>2021-09-19T10:57:51Z</time>
      </trkpt>
      <trkpt lat="46.56024" lon="5.76223">
        <ele>610</ele>
        <time>2021-09-19T10:57:52Z</time>
      </trkpt>
      <trkpt lat="46.56027" lon="5.76216">
        <ele>610</ele>
        <time>2021-09-19T10:57:54Z</time>
      </trkpt>
      <trkpt lat="46.56025" lon="5.76208">
        <ele>609</ele>
        <time>2021-09-19T10:57:55Z</time>
      </trkpt>
      <trkpt lat="46.56015" lon="5.76208">
        <ele>609</ele>
        <time>2021-09-19T10:57:57Z</time>
      </trkpt>
      <trkpt lat="46.56007" lon="5.76204">
        <ele>609</ele>
        <time>2021-09-19T10:57:59Z</time>
      </trkpt>
      <trkpt lat="46.55997" lon="5.76191">
        <ele>608</ele>
        <time>2021-09-19T10:58:02Z</time>
      </trkpt>
      <trkpt lat="46.55993" lon="5.76181">
        <ele>608</ele>
        <time>2021-09-19T10:58:04Z</time>
      </trkpt>
      <trkpt lat="46.55988" lon="5.76154">
        <ele>606</ele>
        <time>2021-09-19T10:58:09Z</time>
      </trkpt>
      <trkpt lat="46.55991" lon="5.76137">
        <ele>604</ele>
        <time>2021-09-19T10:58:11Z</time>
      </trkpt>
      <trkpt lat="46.56001" lon="5.76116">
        <ele>601</ele>
        <time>2021-09-19T10:58:16Z</time>
      </trkpt>
      <trkpt lat="46.56006" lon="5.76109">
        <ele>600</ele>
        <time>2021-09-19T10:58:17Z</time>
      </trkpt>
      <trkpt lat="46.56027" lon="5.76096">
        <ele>599</ele>
        <time>2021-09-19T10:58:23Z</time>
      </trkpt>
      <trkpt lat="46.56044" lon="5.76068">
        <ele>595</ele>
        <time>2021-09-19T10:58:29Z</time>
      </trkpt>
      <trkpt lat="46.56053" lon="5.76058">
        <ele>593</ele>
        <time>2021-09-19T10:58:31Z</time>
      </trkpt>
      <trkpt lat="46.56107" lon="5.76025">
        <ele>581</ele>
        <time>2021-09-19T10:58:45Z</time>
      </trkpt>
      <trkpt lat="46.56114" lon="5.76023">
        <ele>579</ele>
        <time>2021-09-19T10:58:47Z</time>
      </trkpt>
      <trkpt lat="46.56121" lon="5.76022">
        <ele>578</ele>
        <time>2021-09-19T10:58:48Z</time>
      </trkpt>
      <trkpt lat="46.56136" lon="5.76026">
        <ele>578</ele>
        <time>2021-09-19T10:58:52Z</time>
      </trkpt>
      <trkpt lat="46.56175" lon="5.76043">
        <ele>578</ele>
        <time>2021-09-19T10:59:01Z</time>
      </trkpt>
      <trkpt lat="46.5621" lon="5.76051">
        <ele>576</ele>
        <time>2021-09-19T10:59:10Z</time>
      </trkpt>
      <trkpt lat="46.5622" lon="5.76055">
        <ele>576</ele>
        <time>2021-09-19T10:59:12Z</time>
      </trkpt>
      <trkpt lat="46.5625" lon="5.76074">
        <ele>576</ele>
        <time>2021-09-19T10:59:20Z</time>
      </trkpt>
      <trkpt lat="46.56259" lon="5.76077">
        <ele>576</ele>
        <time>2021-09-19T10:59:22Z</time>
      </trkpt>
      <trkpt lat="46.56259" lon="5.76074">
        <ele>576</ele>
        <time>2021-09-19T10:59:22Z</time>
      </trkpt>
      <trkpt lat="46.56236" lon="5.76064">
        <ele>576</ele>
        <time>2021-09-19T10:59:28Z</time>
      </trkpt>
      <trkpt lat="46.56231" lon="5.76059">
        <ele>575</ele>
        <time>2021-09-19T10:59:29Z</time>
      </trkpt>
      <trkpt lat="46.56211" lon="5.76048">
        <ele>575</ele>
        <time>2021-09-19T10:59:34Z</time>
      </trkpt>
      <trkpt lat="46.56182" lon="5.76017">
        <ele>570</ele>
        <time>2021-09-19T10:59:43Z</time>
      </trkpt>
      <trkpt lat="46.5614" lon="5.75993">
        <ele>569</ele>
        <time>2021-09-19T10:59:53Z</time>
      </trkpt>
      <trkpt lat="46.5613" lon="5.75991">
        <ele>570</ele>
        <time>2021-09-19T10:59:56Z</time>
      </trkpt>
      <trkpt lat="46.56114" lon="5.75994">
        <ele>573</ele>
        <time>2021-09-19T10:59:59Z</time>
      </trkpt>
      <trkpt lat="46.56099" lon="5.76003">
        <ele>576</ele>
        <time>2021-09-19T11:00:03Z</time>
      </trkpt>
      <trkpt lat="46.56081" lon="5.76008">
        <ele>580</ele>
        <time>2021-09-19T11:00:07Z</time>
      </trkpt>
      <trkpt lat="46.56062" lon="5.76005">
        <ele>583</ele>
        <time>2021-09-19T11:00:12Z</time>
      </trkpt>
      <trkpt lat="46.56062" lon="5.75996">
        <ele>581</ele>
        <time>2021-09-19T11:00:13Z</time>
      </trkpt>
      <trkpt lat="46.56066" lon="5.75988">
        <ele>580</ele>
        <time>2021-09-19T11:00:15Z</time>
      </trkpt>
      <trkpt lat="46.56094" lon="5.75958">
        <ele>570</ele>
        <time>2021-09-19T11:00:23Z</time>
      </trkpt>
      <trkpt lat="46.56112" lon="5.75951">
        <ele>567</ele>
        <time>2021-09-19T11:00:27Z</time>
      </trkpt>
      <trkpt lat="46.5613" lon="5.75948">
        <ele>564</ele>
        <time>2021-09-19T11:00:32Z</time>
      </trkpt>
      <trkpt lat="46.56126" lon="5.75894">
        <ele>559</ele>
        <time>2021-09-19T11:00:40Z</time>
      </trkpt>
      <trkpt lat="46.56131" lon="5.75849">
        <ele>556</ele>
        <time>2021-09-19T11:00:48Z</time>
      </trkpt>
      <trkpt lat="46.56146" lon="5.75794">
        <ele>551</ele>
        <time>2021-09-19T11:00:57Z</time>
      </trkpt>
      <trkpt lat="46.56162" lon="5.75756">
        <ele>547</ele>
        <time>2021-09-19T11:01:04Z</time>
      </trkpt>
      <trkpt lat="46.56165" lon="5.75715">
        <ele>544</ele>
        <time>2021-09-19T11:01:11Z</time>
      </trkpt>
      <trkpt lat="46.56168" lon="5.75708">
        <ele>543</ele>
        <time>2021-09-19T11:01:12Z</time>
      </trkpt>
      <trkpt lat="46.56183" lon="5.75693">
        <ele>542</ele>
        <time>2021-09-19T11:01:16Z</time>
      </trkpt>
      <trkpt lat="46.56192" lon="5.75691">
        <ele>542</ele>
        <time>2021-09-19T11:01:19Z</time>
      </trkpt>
      <trkpt lat="46.56203" lon="5.75695">
        <ele>542</ele>
        <time>2021-09-19T11:01:21Z</time>
      </trkpt>
      <trkpt lat="46.56215" lon="5.75703">
        <ele>542</ele>
        <time>2021-09-19T11:01:24Z</time>
      </trkpt>
      <trkpt lat="46.56249" lon="5.75715">
        <ele>541</ele>
        <time>2021-09-19T11:01:32Z</time>
      </trkpt>
      <trkpt lat="46.56254" lon="5.75715">
        <ele>541</ele>
        <time>2021-09-19T11:01:34Z</time>
      </trkpt>
      <trkpt lat="46.56266" lon="5.75708">
        <ele>541</ele>
        <time>2021-09-19T11:01:37Z</time>
      </trkpt>
      <trkpt lat="46.56271" lon="5.75702">
        <ele>541</ele>
        <time>2021-09-19T11:01:38Z</time>
      </trkpt>
      <trkpt lat="46.56258" lon="5.75613">
        <ele>538</ele>
        <time>2021-09-19T11:01:53Z</time>
      </trkpt>
      <trkpt lat="46.5624" lon="5.75547">
        <ele>536</ele>
        <time>2021-09-19T11:02:04Z</time>
      </trkpt>
      <trkpt lat="46.56228" lon="5.7548">
        <ele>534</ele>
        <time>2021-09-19T11:02:15Z</time>
      </trkpt>
      <trkpt lat="46.56218" lon="5.75453">
        <ele>532</ele>
        <time>2021-09-19T11:02:20Z</time>
      </trkpt>
      <trkpt lat="46.56206" lon="5.75407">
        <ele>530</ele>
        <time>2021-09-19T11:02:28Z</time>
      </trkpt>
      <trkpt lat="46.56206" lon="5.75392">
        <ele>529</ele>
        <time>2021-09-19T11:02:31Z</time>
      </trkpt>
      <trkpt lat="46.56211" lon="5.75381">
        <ele>529</ele>
        <time>2021-09-19T11:02:33Z</time>
      </trkpt>
      <trkpt lat="46.56231" lon="5.75374">
        <ele>529</ele>
        <time>2021-09-19T11:02:37Z</time>
      </trkpt>
      <trkpt lat="46.56236" lon="5.75369">
        <ele>529</ele>
        <time>2021-09-19T11:02:39Z</time>
      </trkpt>
      <trkpt lat="46.56238" lon="5.75361">
        <ele>528</ele>
        <time>2021-09-19T11:02:40Z</time>
      </trkpt>
      <trkpt lat="46.56247" lon="5.75352">
        <ele>528</ele>
        <time>2021-09-19T11:02:43Z</time>
      </trkpt>
      <trkpt lat="46.56274" lon="5.75344">
        <ele>527</ele>
        <time>2021-09-19T11:02:49Z</time>
      </trkpt>
      <trkpt lat="46.56287" lon="5.75345">
        <ele>527</ele>
        <time>2021-09-19T11:02:52Z</time>
      </trkpt>
      <trkpt lat="46.56337" lon="5.75365">
        <ele>528</ele>
        <time>2021-09-19T11:03:04Z</time>
      </trkpt>
      <trkpt lat="46.56352" lon="5.75368">
        <ele>528</ele>
        <time>2021-09-19T11:03:08Z</time>
      </trkpt>
      <trkpt lat="46.56364" lon="5.75365">
        <ele>528</ele>
        <time>2021-09-19T11:03:11Z</time>
      </trkpt>
      <trkpt lat="46.56377" lon="5.75353">
        <ele>527</ele>
        <time>2021-09-19T11:03:14Z</time>
      </trkpt>
      <trkpt lat="46.56384" lon="5.75351">
        <ele>527</ele>
        <time>2021-09-19T11:03:16Z</time>
      </trkpt>
      <trkpt lat="46.56405" lon="5.75352">
        <ele>527</ele>
        <time>2021-09-19T11:03:21Z</time>
      </trkpt>
      <trkpt lat="46.56422" lon="5.75348">
        <ele>527</ele>
        <time>2021-09-19T11:03:25Z</time>
      </trkpt>
      <trkpt lat="46.56431" lon="5.75343">
        <ele>526</ele>
        <time>2021-09-19T11:03:27Z</time>
      </trkpt>
      <trkpt lat="46.56464" lon="5.75337">
        <ele>526</ele>
        <time>2021-09-19T11:03:35Z</time>
      </trkpt>
      <trkpt lat="46.56469" lon="5.75339">
        <ele>526</ele>
        <time>2021-09-19T11:03:36Z</time>
      </trkpt>
      <trkpt lat="46.56475" lon="5.75336">
        <ele>525</ele>
        <time>2021-09-19T11:03:38Z</time>
      </trkpt>
      <trkpt lat="46.56492" lon="5.75334">
        <ele>525</ele>
        <time>2021-09-19T11:03:42Z</time>
      </trkpt>
      <trkpt lat="46.56521" lon="5.75343">
        <ele>526</ele>
        <time>2021-09-19T11:03:49Z</time>
      </trkpt>
      <trkpt lat="46.56523" lon="5.75337">
        <ele>526</ele>
        <time>2021-09-19T11:03:50Z</time>
      </trkpt>
      <trkpt lat="46.56533" lon="5.75334">
        <ele>526</ele>
        <time>2021-09-19T11:03:52Z</time>
      </trkpt>
      <trkpt lat="46.56538" lon="5.75337">
        <ele>526</ele>
        <time>2021-09-19T11:03:53Z</time>
      </trkpt>
      <trkpt lat="46.56544" lon="5.75351">
        <ele>527</ele>
        <time>2021-09-19T11:03:56Z</time>
      </trkpt>
      <trkpt lat="46.56549" lon="5.75354">
        <ele>527</ele>
        <time>2021-09-19T11:03:57Z</time>
      </trkpt>
      <trkpt lat="46.56554" lon="5.75353">
        <ele>527</ele>
        <time>2021-09-19T11:03:58Z</time>
      </trkpt>
      <trkpt lat="46.5657" lon="5.75344">
        <ele>527</ele>
        <time>2021-09-19T11:04:02Z</time>
      </trkpt>
      <trkpt lat="46.56583" lon="5.75331">
        <ele>527</ele>
        <time>2021-09-19T11:04:06Z</time>
      </trkpt>
      <trkpt lat="46.56627" lon="5.75269">
        <ele>526</ele>
        <time>2021-09-19T11:04:20Z</time>
      </trkpt>
      <trkpt lat="46.56657" lon="5.75256">
        <ele>526</ele>
        <time>2021-09-19T11:04:28Z</time>
      </trkpt>
      <trkpt lat="46.56686" lon="5.75238">
        <ele>526</ele>
        <time>2021-09-19T11:04:35Z</time>
      </trkpt>
      <trkpt lat="46.56717" lon="5.75223">
        <ele>526</ele>
        <time>2021-09-19T11:04:43Z</time>
      </trkpt>
      <trkpt lat="46.56739" lon="5.75205">
        <ele>525</ele>
        <time>2021-09-19T11:04:49Z</time>
      </trkpt>
      <trkpt lat="46.56746" lon="5.75205">
        <ele>525</ele>
        <time>2021-09-19T11:04:50Z</time>
      </trkpt>
      <trkpt lat="46.56759" lon="5.7521">
        <ele>526</ele>
        <time>2021-09-19T11:04:53Z</time>
      </trkpt>
      <trkpt lat="46.56773" lon="5.75206">
        <ele>526</ele>
        <time>2021-09-19T11:04:57Z</time>
      </trkpt>
      <trkpt lat="46.56781" lon="5.75207">
        <ele>526</ele>
        <time>2021-09-19T11:04:59Z</time>
      </trkpt>
      <trkpt lat="46.56813" lon="5.75216">
        <ele>526</ele>
        <time>2021-09-19T11:05:06Z</time>
      </trkpt>
      <trkpt lat="46.56857" lon="5.75222">
        <ele>526</ele>
        <time>2021-09-19T11:05:17Z</time>
      </trkpt>
      <trkpt lat="46.56864" lon="5.75226">
        <ele>526</ele>
        <time>2021-09-19T11:05:18Z</time>
      </trkpt>
      <trkpt lat="46.56889" lon="5.75232">
        <ele>526</ele>
        <time>2021-09-19T11:05:24Z</time>
      </trkpt>
      <trkpt lat="46.56926" lon="5.75251">
        <ele>526</ele>
        <time>2021-09-19T11:05:33Z</time>
      </trkpt>
      <trkpt lat="46.56987" lon="5.75331">
        <ele>531.6</ele>
      </trkpt>
    </trkseg>
  </trk>
</gpx>